Observation data for Colorado City on 09/23/2019      Previous  Date  Next       Current Mesonet Observations  Soil Data  Daily Summary Page  Observations in Plain Language
KCO2 230500Z 17003KT 23/22 A3005 RMK A01 T02300215  RH  091%=      5-min Rain = 0
KCO2 230501Z 18004KT 23/22 A3005 RMK A01 T02300215  RH  091%=      5-min Rain = 0
KCO2 230502Z 17003KT 23/22 A3005 RMK A01 T02310215  RH  091%=      5-min Rain = 0
KCO2 230503Z 18003KT 23/22 A3005 RMK A01 T02310215  RH  091%=      5-min Rain = 0
KCO2 230504Z 19003KT 23/21 A3005 RMK A01 T02310214  RH  091%=      5-min Rain = 0
KCO2 230505Z 18003KT 23/22 A3005 RMK A01 T02310215  RH  091%=      5-min Rain = 0
KCO2 230506Z 18003KT 23/21 A3005 RMK A01 T02310214  RH  090%=      5-min Rain = 0
KCO2 230507Z 17003KT 23/22 A3005 RMK A01 T02310215  RH  090%=      5-min Rain = 0
KCO2 230508Z 17003KT 23/21 A3005 RMK A01 T02310214  RH  090%=      5-min Rain = 0
KCO2 230509Z 16002KT 23/21 A3005 RMK A01 T02310214  RH  090%=      5-min Rain = 0
KCO2 230510Z 17002KT 23/21 A3005 RMK A01 T02310214  RH  090%=      5-min Rain = 0
KCO2 230511Z 17002KT 23/21 A3005 RMK A01 T02310214  RH  090%=      5-min Rain = 0
KCO2 230512Z 18002KT 23/21 A3005 RMK A01 T02310214  RH  090%=      5-min Rain = 0
KCO2 230513Z 19002KT 23/22 A3005 RMK A01 T02310215  RH  090%=      5-min Rain = 0
KCO2 230514Z 18002KT 23/21 A3005 RMK A01 T02310214  RH  090%=      5-min Rain = 0
KCO2 230515Z 17001KT 23/21 A3005 RMK A01 T02310214  RH  090%=      5-min Rain = 0
KCO2 230516Z 16001KT 23/22 A3005 RMK A01 T02310215  RH  090%=      5-min Rain = 0
KCO2 230517Z 12001KT 23/22 A3005 RMK A01 T02310215  RH  090%=      5-min Rain = 0
KCO2 230518Z 11001KT 23/21 A3005 RMK A01 T02310214  RH  090%=      5-min Rain = 0
KCO2 230519Z 12002KT 23/21 A3005 RMK A01 T02310214  RH  091%=      5-min Rain = 0
KCO2 230520Z 09002KT 23/22 A3005 RMK A01 T02310215  RH  091%=      5-min Rain = 0
KCO2 230521Z 07003KT 23/21 A3005 RMK A01 T02300214  RH  091%=      5-min Rain = 0
KCO2 230522Z 07003KT 23/22 A3005 RMK A01 T02300215  RH  091%=      5-min Rain = 0
KCO2 230523Z 07003KT 23/22 A3005 RMK A01 T02310216  RH  091%=      5-min Rain = 0
KCO2 230524Z 07003KT 23/22 A3005 RMK A01 T02300215  RH  092%=      5-min Rain = 0
KCO2 230525Z 06003KT 23/22 A3005 RMK A01 T02300216  RH  092%=      5-min Rain = 0
KCO2 230526Z 06002KT 23/22 A3005 RMK A01 T02290216  RH  092%=      5-min Rain = 0
KCO2 230527Z 06002KT 23/22 A3005 RMK A01 T02290216  RH  092%=      5-min Rain = 0
KCO2 230528Z 06002KT 23/22 A3005 RMK A01 T02290216  RH  092%=      5-min Rain = 0
KCO2 230529Z 06002KT 23/22 A3005 RMK A01 T02280216  RH  092%=      5-min Rain = 0
KCO2 230530Z 06002KT 23/22 A3005 RMK A01 T02280216  RH  093%=      5-min Rain = 0
KCO2 230531Z 07002KT 23/22 A3005 RMK A01 T02280215  RH  093%=      5-min Rain = 0
KCO2 230532Z 07002KT 23/22 A3005 RMK A01 T02280215  RH  093%=      5-min Rain = 0
KCO2 230533Z 07002KT 23/22 A3005 RMK A01 T02280216  RH  093%=      5-min Rain = 0
KCO2 230534Z 08002KT 23/22 A3004 RMK A01 T02280216  RH  093%=      5-min Rain = 0
KCO2 230535Z 09002KT 23/22 A3005 RMK A01 T02280216  RH  093%=      5-min Rain = 0
KCO2 230536Z 08002KT 23/22 A3005 RMK A01 T02280216  RH  093%=      5-min Rain = 0
KCO2 230537Z 08003KT 23/22 A3005 RMK A01 T02280216  RH  093%=      5-min Rain = 0
KCO2 230538Z 08002KT 23/22 A3005 RMK A01 T02280216  RH  093%=      5-min Rain = 0
KCO2 230539Z 08002KT 23/22 A3005 RMK A01 T02280215  RH  093%=      5-min Rain = 0
KCO2 230540Z 08002KT 23/22 A3005 RMK A01 T02280216  RH  093%=      5-min Rain = 0
KCO2 230541Z 08002KT 23/22 A3005 RMK A01 T02280216  RH  093%=      5-min Rain = 0
KCO2 230542Z 08002KT 23/22 A3005 RMK A01 T02280215  RH  093%=      5-min Rain = 0
KCO2 230543Z 09002KT 23/22 A3005 RMK A01 T02280215  RH  093%=      5-min Rain = 0
KCO2 230544Z 09002KT 23/22 A3004 RMK A01 T02280215  RH  093%=      5-min Rain = 0
KCO2 230545Z 09002KT 23/22 A3004 RMK A01 T02280215  RH  093%=      5-min Rain = 0
KCO2 230546Z 09002KT 23/22 A3004 RMK A01 T02280215  RH  092%=      5-min Rain = 0
KCO2 230547Z 09002KT 23/22 A3004 RMK A01 T02280215  RH  092%=      5-min Rain = 0
KCO2 230548Z 10002KT 23/22 A3004 RMK A01 T02280215  RH  092%=      5-min Rain = 0
KCO2 230549Z 10003KT 23/22 A3004 RMK A01 T02280215  RH  092%=      5-min Rain = 0
KCO2 230550Z 10002KT 23/22 A3004 RMK A01 T02280215  RH  092%=      5-min Rain = 0
KCO2 230551Z 10003KT 23/22 A3004 RMK A01 T02280215  RH  092%=      5-min Rain = 0
KCO2 230552Z 09003KT 23/22 A3004 RMK A01 T02290215  RH  092%=      5-min Rain = 0
KCO2 230553Z 09002KT 23/22 A3004 RMK A01 T02290215  RH  092%=      5-min Rain = 0
KCO2 230554Z 09002KT 23/22 A3004 RMK A01 T02290215  RH  092%=      5-min Rain = 0
KCO2 230555Z 08003KT 23/22 A3004 RMK A01 T02290216  RH  092%=      5-min Rain = 0
KCO2 230556Z 08003KT 23/22 A3004 RMK A01 T02290215  RH  092%=      5-min Rain = 0
KCO2 230557Z 08003KT 23/22 A3004 RMK A01 T02290216  RH  092%=      5-min Rain = 0
KCO2 230558Z 08002KT 23/22 A3004 RMK A01 T02290216  RH  092%=      5-min Rain = 0
KCO2 230559Z 07002KT 23/22 A3004 RMK A01 T02290216  RH  092%=      5-min Rain = 0
KCO2 230600Z 08002KT 23/22 A3004 RMK A01 T02290216  RH  092%=      5-min Rain = 0
KCO2 230601Z 09001KT 23/22 A3004 RMK A01 T02290216  RH  092%=      5-min Rain = 0
KCO2 230602Z 09001KT 23/22 A3004 RMK A01 T02280216  RH  092%=      5-min Rain = 0
KCO2 230603Z 09001KT 23/22 A3004 RMK A01 T02280215  RH  092%=      5-min Rain = 0
KCO2 230604Z 08001KT 23/22 A3004 RMK A01 T02280215  RH  092%=      5-min Rain = 0
KCO2 230605Z 07001KT 23/22 A3004 RMK A01 T02280215  RH  092%=      5-min Rain = 0
KCO2 230606Z 07001KT 23/22 A3004 RMK A01 T02280215  RH  092%=      5-min Rain = 0
KCO2 230607Z 05002KT 23/22 A3004 RMK A01 T02280215  RH  092%=      5-min Rain = 0
KCO2 230608Z 05002KT 23/22 A3004 RMK A01 T02280215  RH  092%=      5-min Rain = 0
KCO2 230609Z 05002KT 23/22 A3004 RMK A01 T02280215  RH  092%=      5-min Rain = 0
KCO2 230610Z 04002KT 23/22 A3004 RMK A01 T02280215  RH  092%=      5-min Rain = 0
KCO2 230611Z 03002KT 23/22 A3004 RMK A01 T02280216  RH  092%=      5-min Rain = 0
KCO2 230612Z 03002KT 23/22 A3004 RMK A01 T02280215  RH  092%=      5-min Rain = 0
KCO2 230613Z 03002KT 23/22 A3004 RMK A01 T02280216  RH  093%=      5-min Rain = 0
KCO2 230614Z 04001KT 23/22 A3004 RMK A01 T02280216  RH  093%=      5-min Rain = 0
KCO2 230615Z 04002KT 23/22 A3004 RMK A01 T02280216  RH  093%=      5-min Rain = 0
KCO2 230616Z 05002KT 23/22 A3004 RMK A01 T02280216  RH  093%=      5-min Rain = 0
KCO2 230617Z 05002KT 23/22 A3004 RMK A01 T02280216  RH  093%=      5-min Rain = 0
KCO2 230618Z 05002KT 23/22 A3004 RMK A01 T02280216  RH  093%=      5-min Rain = 0
KCO2 230619Z 05002KT 23/22 A3004 RMK A01 T02280216  RH  093%=      5-min Rain = 0
KCO2 230620Z 04002KT 23/22 A3004 RMK A01 T02280216  RH  093%=      5-min Rain = 0
KCO2 230621Z 04002KT 23/22 A3004 RMK A01 T02280216  RH  093%=      5-min Rain = 0
KCO2 230622Z 05002KT 23/22 A3004 RMK A01 T02280216  RH  093%=      5-min Rain = 0
KCO2 230623Z 06003KT 23/22 A3004 RMK A01 T02280216  RH  093%=      5-min Rain = 0
KCO2 230624Z 07003KT 23/22 A3004 RMK A01 T02280216  RH  093%=      5-min Rain = 0
KCO2 230625Z 07003KT 23/22 A3004 RMK A01 T02280216  RH  093%=      5-min Rain = 0
KCO2 230626Z 07003KT 23/22 A3004 RMK A01 T02280216  RH  093%=      5-min Rain = 0
KCO2 230627Z 07003KT 23/22 A3004 RMK A01 T02280216  RH  093%=      5-min Rain = 0
KCO2 230628Z 08003KT 23/22 A3004 RMK A01 T02280216  RH  093%=      5-min Rain = 0
KCO2 230629Z 08003KT 23/22 A3004 RMK A01 T02280216  RH  093%=      5-min Rain = 0
KCO2 230630Z 08003KT 23/22 A3004 RMK A01 T02280216  RH  093%=      5-min Rain = 0
KCO2 230631Z 08002KT 23/22 A3004 RMK A01 T02280216  RH  093%=      5-min Rain = 0
KCO2 230632Z 09002KT 23/22 A3004 RMK A01 T02280216  RH  093%=      5-min Rain = 0
KCO2 230633Z 09002KT 23/22 A3004 RMK A01 T02280216  RH  093%=      5-min Rain = 0
KCO2 230634Z 10002KT 23/22 A3004 RMK A01 T02280216  RH  093%=      5-min Rain = 0
KCO2 230635Z 10002KT 23/22 A3004 RMK A01 T02280216  RH  093%=      5-min Rain = 0
KCO2 230636Z 11002KT 23/22 A3004 RMK A01 T02280216  RH  093%=      5-min Rain = 0
KCO2 230637Z 11002KT 23/22 A3004 RMK A01 T02280216  RH  093%=      5-min Rain = 0
KCO2 230638Z 11002KT 23/22 A3004 RMK A01 T02280216  RH  093%=      5-min Rain = 0
KCO2 230639Z 11002KT 23/22 A3004 RMK A01 T02280216  RH  093%=      5-min Rain = 0
KCO2 230640Z 10002KT 23/22 A3004 RMK A01 T02280216  RH  093%=      5-min Rain = 0
KCO2 230641Z 09002KT 23/22 A3004 RMK A01 T02280216  RH  093%=      5-min Rain = 0
KCO2 230642Z 10002KT 23/22 A3004 RMK A01 T02280216  RH  093%=      5-min Rain = 0
KCO2 230643Z 09002KT 23/22 A3004 RMK A01 T02280216  RH  093%=      5-min Rain = 0
KCO2 230644Z 07002KT 23/22 A3004 RMK A01 T02280216  RH  093%=      5-min Rain = 0
KCO2 230645Z 07002KT 23/22 A3004 RMK A01 T02280216  RH  093%=      5-min Rain = 0
KCO2 230646Z 07002KT 23/22 A3004 RMK A01 T02290216  RH  093%=      5-min Rain = 0
KCO2 230647Z 07001KT 23/22 A3004 RMK A01 T02290216  RH  093%=      5-min Rain = 0
KCO2 230648Z 07002KT 23/22 A3004 RMK A01 T02290217  RH  093%=      5-min Rain = 0
KCO2 230649Z 06002KT 23/22 A3004 RMK A01 T02290217  RH  093%=      5-min Rain = 0
KCO2 230650Z 06002KT 23/22 A3004 RMK A01 T02300217  RH  093%=      5-min Rain = 0
KCO2 230651Z 06003KT 23/22 A3004 RMK A01 T02300217  RH  093%=      5-min Rain = 0
KCO2 230652Z 06002KT 23/22 A3004 RMK A01 T02300217  RH  093%=      5-min Rain = 0
KCO2 230653Z 05002KT 23/22 A3004 RMK A01 T02300217  RH  093%=      5-min Rain = 0
KCO2 230654Z 04002KT 23/22 A3004 RMK A01 T02300217  RH  093%=      5-min Rain = 0
KCO2 230655Z 03002KT 23/22 A3004 RMK A01 T02300217  RH  093%=      5-min Rain = 0
KCO2 230656Z 04002KT 23/22 A3004 RMK A01 T02290217  RH  093%=      5-min Rain = 0
KCO2 230657Z 04002KT 23/22 A3005 RMK A01 T02300217  RH  093%=      5-min Rain = 0
KCO2 230658Z 05001KT 23/22 A3005 RMK A01 T02300217  RH  093%=      5-min Rain = 0
KCO2 230659Z 06001KT 23/22 A3005 RMK A01 T02300217  RH  092%=      5-min Rain = 0
KCO2 230700Z 06001KT 23/22 A3005 RMK A01 T02300217  RH  092%=      5-min Rain = 0
KCO2 230701Z 08001KT 23/22 A3005 RMK A01 T02300217  RH  092%=      5-min Rain = 0
KCO2 230702Z 08001KT 23/22 A3005 RMK A01 T02300217  RH  092%=      5-min Rain = 0
KCO2 230703Z 09001KT 23/22 A3005 RMK A01 T02300216  RH  092%=      5-min Rain = 0
KCO2 230704Z 10002KT 23/22 A3005 RMK A01 T02300216  RH  092%=      5-min Rain = 0
KCO2 230705Z 12002KT 23/22 A3005 RMK A01 T02300216  RH  092%=      5-min Rain = 0
KCO2 230706Z 12002KT 23/22 A3005 RMK A01 T02300216  RH  092%=      5-min Rain = 0
KCO2 230707Z 12003KT 23/22 A3005 RMK A01 T02300216  RH  092%=      5-min Rain = 0
KCO2 230708Z 12003KT 23/22 A3005 RMK A01 T02300216  RH  092%=      5-min Rain = 0
KCO2 230709Z 12003KT 23/22 A3005 RMK A01 T02300217  RH  092%=      5-min Rain = 0
KCO2 230710Z 12004KT 23/22 A3005 RMK A01 T02300217  RH  092%=      5-min Rain = 0
KCO2 230711Z 12004KT 23/22 A3005 RMK A01 T02300217  RH  092%=      5-min Rain = 0
KCO2 230712Z 11004KT 23/22 A3005 RMK A01 T02300217  RH  093%=      5-min Rain = 0
KCO2 230713Z 11004KT 23/22 A3005 RMK A01 T02300218  RH  093%=      5-min Rain = 0
KCO2 230714Z 11004KT 23/22 A3006 RMK A01 T02300218  RH  093%=      5-min Rain = 0
KCO2 230715Z 11004KT 23/22 A3006 RMK A01 T02300219  RH  093%=      5-min Rain = 0
KCO2 230716Z 11004KT 23/22 A3006 RMK A01 T02300219  RH  093%=      5-min Rain = 0
KCO2 230717Z 11004KT 23/22 A3006 RMK A01 T02300219  RH  094%=      5-min Rain = 0
KCO2 230718Z 11004KT 23/22 A3006 RMK A01 T02290219  RH  094%=      5-min Rain = 0
KCO2 230719Z 11004KT 23/22 A3006 RMK A01 T02290219  RH  094%=      5-min Rain = 0
KCO2 230720Z 11003KT 23/22 A3006 RMK A01 T02290219  RH  094%=      5-min Rain = 0
KCO2 230721Z 11004KT 23/22 A3006 RMK A01 T02290219  RH  094%=      5-min Rain = 0
KCO2 230722Z 11003KT 23/22 A3006 RMK A01 T02290219  RH  094%=      5-min Rain = 0
KCO2 230723Z 11003KT 23/22 A3006 RMK A01 T02290219  RH  094%=      5-min Rain = 0
KCO2 230724Z 11003KT 23/22 A3006 RMK A01 T02290219  RH  094%=      5-min Rain = 0
KCO2 230725Z 11003KT 23/22 A3006 RMK A01 T02280219  RH  094%=      5-min Rain = 0
KCO2 230726Z 11003KT 23/22 A3006 RMK A01 T02280219  RH  094%=      5-min Rain = 0
KCO2 230727Z 11003KT 23/22 A3006 RMK A01 T02280218  RH  094%=      5-min Rain = 0
KCO2 230728Z 11003KT 23/22 A3006 RMK A01 T02280218  RH  094%=      5-min Rain = 0
KCO2 230729Z 10003KT 23/22 A3006 RMK A01 T02280218  RH  094%=      5-min Rain = 0
KCO2 230730Z 10003KT 23/22 A3006 RMK A01 T02280218  RH  094%=      5-min Rain = 0
KCO2 230731Z 09003KT 23/22 A3006 RMK A01 T02280217  RH  094%=      5-min Rain = 0
KCO2 230732Z 10004KT 23/22 A3006 RMK A01 T02280217  RH  094%=      5-min Rain = 0
KCO2 230733Z 10004KT 23/22 A3006 RMK A01 T02280217  RH  093%=      5-min Rain = 0
KCO2 230734Z 10004KT 23/22 A3006 RMK A01 T02280217  RH  093%=      5-min Rain = 0
KCO2 230735Z 10004KT 23/22 A3006 RMK A01 T02280217  RH  093%=      5-min Rain = 0
KCO2 230736Z 10005KT 23/22 A3006 RMK A01 T02280217  RH  093%=      5-min Rain = 0
KCO2 230737Z 10004KT 23/22 A3006 RMK A01 T02280216  RH  093%=      5-min Rain = 0
KCO2 230738Z 09004KT 23/22 A3006 RMK A01 T02280217  RH  093%=      5-min Rain = 0
KCO2 230739Z 09004KT 23/22 A3006 RMK A01 T02280216  RH  093%=      5-min Rain = 0
KCO2 230740Z 08004KT 23/22 A3006 RMK A01 T02290217  RH  093%=      5-min Rain = 0
KCO2 230741Z 08004KT 23/22 A3006 RMK A01 T02290217  RH  093%=      5-min Rain = 0
KCO2 230742Z 08004KT 23/22 A3006 RMK A01 T02290217  RH  093%=      5-min Rain = 0
KCO2 230743Z 08004KT 23/22 A3006 RMK A01 T02290217  RH  093%=      5-min Rain = 0
KCO2 230744Z 07004KT 23/22 A3006 RMK A01 T02290217  RH  093%=      5-min Rain = 0
KCO2 230745Z 06004KT 23/22 A3006 RMK A01 T02290217  RH  093%=      5-min Rain = 0
KCO2 230746Z 05004KT 23/22 A3006 RMK A01 T02290217  RH  093%=      5-min Rain = 0
KCO2 230747Z 05004KT 23/22 A3006 RMK A01 T02290218  RH  093%=      5-min Rain = 0
KCO2 230748Z 05004KT 23/22 A3006 RMK A01 T02290218  RH  094%=      5-min Rain = 0
KCO2 230749Z 05003KT 23/22 A3006 RMK A01 T02290218  RH  094%=      5-min Rain = 0
KCO2 230750Z 05003KT 23/22 A3006 RMK A01 T02290218  RH  094%=      5-min Rain = 0
KCO2 230751Z 04004KT 23/22 A3006 RMK A01 T02290218  RH  094%=      5-min Rain = 0
KCO2 230752Z 04004KT 23/22 A3006 RMK A01 T02290219  RH  094%=      5-min Rain = 0
KCO2 230753Z 04004KT 23/22 A3006 RMK A01 T02290219  RH  094%=      5-min Rain = 0
KCO2 230754Z 06002KT 23/22 A3006 RMK A01 T02290219  RH  094%=      5-min Rain = 0
KCO2 230755Z 10001KT 23/22 A3006 RMK A01 T02290219  RH  094%=      5-min Rain = 0
KCO2 230756Z 05001KT 23/22 A3006 RMK A01 T02290219  RH  094%=      5-min Rain = 0
KCO2 230757Z 03002KT 23/22 A3006 RMK A01 T02290219  RH  094%=      5-min Rain = 0
KCO2 230758Z 03003KT 23/22 A3006 RMK A01 T02290219  RH  094%=      5-min Rain = 0
KCO2 230759Z 04002KT 23/22 A3006 RMK A01 T02290219  RH  094%=      5-min Rain = 0
KCO2 230800Z 04002KT 23/22 A3006 RMK A01 T02290219  RH  094%=      5-min Rain = 0
KCO2 230801Z 05003KT 23/22 A3006 RMK A01 T02290219  RH  094%=      5-min Rain = 0
KCO2 230802Z 05003KT 23/22 A3006 RMK A01 T02290219  RH  094%=      5-min Rain = 0
KCO2 230803Z 05002KT 23/22 A3006 RMK A01 T02290219  RH  094%=      5-min Rain = 0
KCO2 230804Z 04003KT 23/22 A3006 RMK A01 T02290219  RH  094%=      5-min Rain = 0
KCO2 230805Z 03003KT 23/22 A3006 RMK A01 T02290218  RH  094%=      5-min Rain = 0
KCO2 230806Z 04002KT 23/22 A3006 RMK A01 T02290218  RH  094%=      5-min Rain = 0
KCO2 230807Z 05002KT 23/22 A3006 RMK A01 T02290218  RH  093%=      5-min Rain = 0
KCO2 230808Z 07002KT 23/22 A3006 RMK A01 T02290218  RH  093%=      5-min Rain = 0
KCO2 230809Z 07002KT 23/22 A3006 RMK A01 T02290218  RH  093%=      5-min Rain = 0
KCO2 230810Z 06002KT 23/22 A3006 RMK A01 T02290218  RH  093%=      5-min Rain = 0
KCO2 230811Z 05002KT 23/22 A3006 RMK A01 T02300218  RH  093%=      5-min Rain = 0
KCO2 230812Z 05002KT 23/22 A3006 RMK A01 T02300218  RH  093%=      5-min Rain = 0
KCO2 230813Z 04002KT 23/22 A3006 RMK A01 T02300218  RH  093%=      5-min Rain = 0
KCO2 230814Z 05003KT 23/22 A3006 RMK A01 T02300218  RH  093%=      5-min Rain = 0
KCO2 230815Z 07002KT 23/22 A3006 RMK A01 T02300218  RH  093%=      5-min Rain = 0
KCO2 230816Z 06002KT 23/22 A3006 RMK A01 T02300219  RH  093%=      5-min Rain = 0
KCO2 230817Z 04002KT 23/22 A3006 RMK A01 T02300219  RH  093%=      5-min Rain = 0
KCO2 230818Z 02002KT 23/22 A3006 RMK A01 T02300218  RH  093%=      5-min Rain = 0
KCO2 230819Z 02002KT 23/22 A3006 RMK A01 T02300218  RH  093%=      5-min Rain = 0
KCO2 230820Z 35002KT 23/22 A3006 RMK A01 T02300219  RH  093%=      5-min Rain = 0
KCO2 230821Z 34002KT 23/22 A3006 RMK A01 T02300219  RH  093%=      5-min Rain = 0
KCO2 230822Z 35002KT 23/22 A3006 RMK A01 T02290218  RH  093%=      5-min Rain = 0
KCO2 230823Z 32002KT 23/22 A3006 RMK A01 T02290217  RH  093%=      5-min Rain = 0
KCO2 230824Z 31002KT 23/22 A3006 RMK A01 T02290217  RH  093%=      5-min Rain = 0
KCO2 230825Z 31002KT 23/22 A3006 RMK A01 T02290218  RH  093%=      5-min Rain = 0
KCO2 230826Z 31002KT 23/22 A3006 RMK A01 T02290218  RH  094%=      5-min Rain = 0
KCO2 230827Z 32002KT 23/22 A3006 RMK A01 T02290218  RH  094%=      5-min Rain = 0
KCO2 230828Z 33002KT 23/22 A3006 RMK A01 T02280218  RH  094%=      5-min Rain = 0
KCO2 230829Z 33002KT 23/22 A3006 RMK A01 T02280217  RH  094%=      5-min Rain = 0
KCO2 230830Z 33001KT 23/22 A3006 RMK A01 T02280217  RH  094%=      5-min Rain = 0
KCO2 230831Z 34001KT 23/22 A3006 RMK A01 T02280217  RH  094%=      5-min Rain = 0
KCO2 230832Z 34001KT 23/22 A3006 RMK A01 T02280217  RH  094%=      5-min Rain = 0
KCO2 230833Z 32001KT 23/22 A3006 RMK A01 T02280217  RH  094%=      5-min Rain = 0
KCO2 230834Z 31001KT 23/22 A3006 RMK A01 T02280217  RH  094%=      5-min Rain = 0
KCO2 230835Z 29001KT 23/22 A3006 RMK A01 T02280217  RH  093%=      5-min Rain = 0
KCO2 230836Z 29001KT 23/22 A3006 RMK A01 T02280217  RH  093%=      5-min Rain = 0
KCO2 230837Z 29002KT 23/22 A3006 RMK A01 T02280217  RH  093%=      5-min Rain = 0
KCO2 230838Z 29002KT 23/22 A3006 RMK A01 T02280217  RH  093%=      5-min Rain = 0
KCO2 230839Z 28002KT 23/22 A3006 RMK A01 T02290218  RH  094%=      5-min Rain = 0
KCO2 230840Z 28002KT 23/22 A3006 RMK A01 T02290218  RH  094%=      5-min Rain = 0
KCO2 230841Z 27002KT 23/22 A3006 RMK A01 T02290219  RH  094%=      5-min Rain = 0
KCO2 230842Z 27004KT 23/22 A3006 RMK A01 T02290219  RH  094%=      5-min Rain = 0
KCO2 230843Z 27003KT 23/22 A3006 RMK A01 T02290220  RH  095%=      5-min Rain = 0
KCO2 230844Z 27004KT 23/22 A3006 RMK A01 T02290220  RH  095%=      5-min Rain = 0
KCO2 230845Z 27003KT 23/22 A3006 RMK A01 T02280220  RH  095%=      5-min Rain = 0
KCO2 230846Z 27002KT 23/22 A3006 RMK A01 T02280220  RH  095%=      5-min Rain = 0
KCO2 230847Z 26002KT 23/22 A3006 RMK A01 T02280220  RH  095%=      5-min Rain = 0
KCO2 230848Z 26002KT 23/22 A3006 RMK A01 T02280220  RH  095%=      5-min Rain = 0
KCO2 230849Z 25002KT 23/22 A3006 RMK A01 T02280220  RH  095%=      5-min Rain = 0
KCO2 230850Z 25001KT 23/22 A3006 RMK A01 T02280220  RH  095%=      5-min Rain = 0
KCO2 230851Z 25001KT 23/22 A3006 RMK A01 T02280220  RH  095%=      5-min Rain = 0
KCO2 230852Z 23000KT 23/22 A3006 RMK A01 T02280220  RH  095%=      5-min Rain = 0
KCO2 230853Z 21001KT 23/22 A3006 RMK A01 T02280220  RH  095%=      5-min Rain = 0
KCO2 230854Z 21001KT 23/22 A3006 RMK A01 T02280220  RH  095%=      5-min Rain = 0
KCO2 230855Z 20000KT 23/22 A3006 RMK A01 T02280220  RH  095%=      5-min Rain = 0
KCO2 230856Z 19001KT 23/22 A3006 RMK A01 T02270219  RH  095%=      5-min Rain = 0
KCO2 230857Z 19001KT 23/22 A3006 RMK A01 T02270219  RH  095%=      5-min Rain = 0
KCO2 230858Z 19001KT 23/22 A3006 RMK A01 T02270220  RH  095%=      5-min Rain = 0
KCO2 230859Z 19001KT 23/22 A3006 RMK A01 T02270220  RH  095%=      5-min Rain = 0
KCO2 230900Z 19001KT 23/22 A3006 RMK A01 T02280220  RH  095%=      5-min Rain = 0
KCO2 230901Z 18001KT 23/22 A3005 RMK A01 T02280220  RH  095%=      5-min Rain = 0
KCO2 230902Z 18000KT 23/22 A3005 RMK A01 T02280220  RH  095%=      5-min Rain = 0
KCO2 230903Z 18000KT 23/22 A3005 RMK A01 T02280220  RH  095%=      5-min Rain = 0
KCO2 230904Z 18001KT 23/22 A3005 RMK A01 T02280220  RH  095%=      5-min Rain = 0
KCO2 230905Z 18001KT 23/22 A3005 RMK A01 T02280220  RH  095%=      5-min Rain = 0
KCO2 230906Z 19001KT 23/22 A3005 RMK A01 T02280220  RH  096%=      5-min Rain = 0
KCO2 230907Z 19001KT 23/22 A3005 RMK A01 T02280220  RH  096%=      5-min Rain = 0
KCO2 230908Z 18002KT 23/22 A3005 RMK A01 T02280221  RH  096%=      5-min Rain = 0
KCO2 230909Z 17002KT 23/22 A3005 RMK A01 T02280221  RH  096%=      5-min Rain = 0
KCO2 230910Z 16002KT 23/22 A3005 RMK A01 T02280221  RH  096%=      5-min Rain = 0
KCO2 230911Z 16003KT 23/22 A3005 RMK A01 T02280221  RH  096%=      5-min Rain = 0
KCO2 230912Z 16003KT 23/22 A3005 RMK A01 T02280221  RH  095%=      5-min Rain = 0
KCO2 230913Z 16003KT 23/22 A3005 RMK A01 T02280220  RH  095%=      5-min Rain = 0
KCO2 230914Z 16003KT 23/22 A3005 RMK A01 T02280220  RH  095%=      5-min Rain = 0
KCO2 230915Z 16003KT 23/22 A3005 RMK A01 T02280220  RH  095%=      5-min Rain = 0
KCO2 230916Z 16003KT 23/22 A3005 RMK A01 T02280219  RH  095%=      5-min Rain = 0
KCO2 230917Z 16003KT 23/22 A3005 RMK A01 T02280219  RH  094%=      5-min Rain = 0
KCO2 230918Z 16003KT 23/22 A3005 RMK A01 T02280218  RH  094%=      5-min Rain = 0
KCO2 230919Z 16002KT 23/22 A3005 RMK A01 T02280218  RH  094%=      5-min Rain = 0
KCO2 230920Z 17002KT 23/22 A3005 RMK A01 T02290217  RH  093%=      5-min Rain = 0
KCO2 230921Z 17002KT 23/22 A3005 RMK A01 T02280215  RH  092%=      5-min Rain = 0
KCO2 230922Z 17002KT 23/21 A3005 RMK A01 T02280214  RH  092%=      5-min Rain = 0
KCO2 230923Z 17002KT 23/21 A3005 RMK A01 T02280213  RH  091%=      5-min Rain = 0
KCO2 230924Z 17002KT 23/21 A3005 RMK A01 T02290213  RH  091%=      5-min Rain = 0
KCO2 230925Z 17002KT 23/21 A3005 RMK A01 T02290212  RH  090%=      5-min Rain = 0
KCO2 230926Z 17002KT 23/21 A3006 RMK A01 T02300213  RH  090%=      5-min Rain = 0
KCO2 230927Z 17002KT 23/21 A3006 RMK A01 T02300213  RH  090%=      5-min Rain = 0
KCO2 230928Z 17002KT 23/21 A3006 RMK A01 T02300212  RH  090%=      5-min Rain = 0
KCO2 230929Z 17001KT 23/21 A3006 RMK A01 T02300213  RH  090%=      5-min Rain = 0
KCO2 230930Z 17001KT 23/22 A3006 RMK A01 T02310215  RH  091%=      5-min Rain = 0
KCO2 230931Z 16001KT 23/22 A3006 RMK A01 T02320216  RH  091%=      5-min Rain = 0
KCO2 230932Z 15001KT 23/22 A3006 RMK A01 T02320216  RH  091%=      5-min Rain = 0
KCO2 230933Z 33004KT 23/22 A3006 RMK A01 T02320219  RH  092%=      5-min Rain = 0
KCO2 230934Z 34004KT 23/22 A3006 RMK A01 T02320219  RH  092%=      5-min Rain = 0
KCO2 230935Z 33003KT 23/22 A3006 RMK A01 T02310218  RH  092%=      5-min Rain = 0
KCO2 230936Z 33003KT 23/22 A3006 RMK A01 T02300218  RH  093%=      5-min Rain = 0
KCO2 230937Z 34002KT 23/22 A3006 RMK A01 T02300217  RH  093%=      5-min Rain = 0
KCO2 230938Z 36001KT 23/22 A3006 RMK A01 T02300217  RH  093%=      5-min Rain = 0
KCO2 230939Z 35001KT 23/22 A3006 RMK A01 T02300218  RH  093%=      5-min Rain = 0
KCO2 230940Z 01002KT 23/22 A3006 RMK A01 T02290217  RH  093%=      5-min Rain = 0
KCO2 230941Z 01002KT 23/22 A3006 RMK A01 T02290217  RH  093%=      5-min Rain = 0
KCO2 230942Z 01002KT 23/22 A3006 RMK A01 T02290217  RH  093%=      5-min Rain = 0
KCO2 230943Z 02001KT 23/22 A3006 RMK A01 T02290217  RH  093%=      5-min Rain = 0
KCO2 230944Z 02002KT 23/22 A3006 RMK A01 T02290217  RH  093%=      5-min Rain = 0
KCO2 230945Z 03002KT 23/22 A3006 RMK A01 T02280217  RH  093%=      5-min Rain = 0
KCO2 230946Z 03002KT 23/22 A3006 RMK A01 T02290217  RH  093%=      5-min Rain = 0
KCO2 230947Z 03002KT 23/22 A3006 RMK A01 T02290217  RH  093%=      5-min Rain = 0
KCO2 230948Z 03002KT 23/22 A3006 RMK A01 T02290218  RH  093%=      5-min Rain = 0
KCO2 230949Z 04002KT 23/22 A3006 RMK A01 T02290218  RH  094%=      5-min Rain = 0
KCO2 230950Z 05002KT 23/22 A3006 RMK A01 T02290218  RH  094%=      5-min Rain = 0
KCO2 230951Z 06002KT 23/22 A3006 RMK A01 T02280218  RH  094%=      5-min Rain = 0
KCO2 230952Z 06002KT 23/22 A3006 RMK A01 T02280217  RH  094%=      5-min Rain = 0
KCO2 230953Z 05002KT 23/22 A3006 RMK A01 T02280218  RH  094%=      5-min Rain = 0
KCO2 230954Z 06002KT 23/22 A3006 RMK A01 T02280218  RH  094%=      5-min Rain = 0
KCO2 230955Z 06002KT 23/22 A3006 RMK A01 T02280218  RH  094%=      5-min Rain = 0
KCO2 230956Z 06002KT 23/22 A3006 RMK A01 T02280218  RH  094%=      5-min Rain = 0
KCO2 230957Z 05001KT 23/22 A3006 RMK A01 T02280218  RH  094%=      5-min Rain = 0
KCO2 230958Z 05001KT 23/22 A3006 RMK A01 T02280217  RH  094%=      5-min Rain = 0
KCO2 230959Z 04001KT 23/22 A3006 RMK A01 T02280217  RH  094%=      5-min Rain = 0
KCO2 231000Z 02001KT 23/22 A3006 RMK A01 T02270217  RH  094%=      5-min Rain = 0
KCO2 231001Z 02001KT 23/22 A3006 RMK A01 T02270217  RH  094%=      5-min Rain = 0
KCO2 231002Z 35001KT 23/22 A3006 RMK A01 T02270217  RH  094%=      5-min Rain = 0
KCO2 231003Z 34001KT 23/22 A3006 RMK A01 T02270216  RH  094%=      5-min Rain = 0
KCO2 231004Z 33002KT 23/22 A3006 RMK A01 T02270216  RH  094%=      5-min Rain = 0
KCO2 231005Z 31002KT 23/22 A3006 RMK A01 T02270217  RH  094%=      5-min Rain = 0
KCO2 231006Z 31002KT 23/22 A3006 RMK A01 T02270217  RH  094%=      5-min Rain = 0
KCO2 231007Z 32002KT 23/22 A3006 RMK A01 T02270217  RH  094%=      5-min Rain = 0
KCO2 231008Z 31002KT 23/22 A3006 RMK A01 T02260217  RH  095%=      5-min Rain = 0
KCO2 231009Z 30002KT 23/22 A3006 RMK A01 T02260217  RH  095%=      5-min Rain = 0
KCO2 231010Z 31003KT 23/22 A3006 RMK A01 T02260217  RH  095%=      5-min Rain = 0
KCO2 231011Z 31004KT 23/22 A3006 RMK A01 T02250216  RH  095%=      5-min Rain = 0
KCO2 231012Z 30004KT 23/22 A3006 RMK A01 T02250216  RH  095%=      5-min Rain = 0
KCO2 231013Z 31004KT 23/22 A3006 RMK A01 T02250215  RH  095%=      5-min Rain = 0
KCO2 231014Z 31003KT 22/22 A3006 RMK A01 T02240215  RH  094%=      5-min Rain = 0
KCO2 231015Z 31004KT 22/21 A3006 RMK A01 T02240214  RH  094%=      5-min Rain = 0
KCO2 231016Z 31004KT 22/21 A3006 RMK A01 T02240213  RH  094%=      5-min Rain = 0
KCO2 231017Z 31003KT 22/21 A3006 RMK A01 T02240213  RH  094%=      5-min Rain = 0
KCO2 231018Z 30003KT 22/21 A3006 RMK A01 T02230213  RH  094%=      5-min Rain = 0
KCO2 231019Z 30003KT 22/21 A3006 RMK A01 T02230213  RH  094%=      5-min Rain = 0
KCO2 231020Z 30003KT 22/21 A3006 RMK A01 T02230213  RH  094%=      5-min Rain = 0
KCO2 231021Z 30003KT 22/21 A3006 RMK A01 T02230212  RH  094%=      5-min Rain = 0
KCO2 231022Z 30003KT 22/21 A3006 RMK A01 T02230212  RH  094%=      5-min Rain = 0
KCO2 231023Z 30003KT 22/21 A3006 RMK A01 T02220212  RH  094%=      5-min Rain = 0
KCO2 231024Z 31003KT 22/21 A3006 RMK A01 T02220212  RH  094%=      5-min Rain = 0
KCO2 231025Z 31003KT 22/21 A3006 RMK A01 T02220212  RH  094%=      5-min Rain = 0
KCO2 231026Z 31002KT 22/21 A3006 RMK A01 T02220212  RH  094%=      5-min Rain = 0
KCO2 231027Z 31002KT 22/21 A3006 RMK A01 T02220212  RH  094%=      5-min Rain = 0
KCO2 231028Z 32003KT 22/21 A3006 RMK A01 T02220212  RH  094%=      5-min Rain = 0
KCO2 231029Z 32002KT 22/21 A3006 RMK A01 T02220212  RH  094%=      5-min Rain = 0
KCO2 231030Z 32002KT 22/21 A3006 RMK A01 T02220212  RH  094%=      5-min Rain = 0
KCO2 231031Z 32002KT 22/21 A3006 RMK A01 T02210212  RH  094%=      5-min Rain = 0
KCO2 231032Z 33001KT 22/21 A3006 RMK A01 T02210212  RH  094%=      5-min Rain = 0
KCO2 231033Z 33001KT 22/21 A3006 RMK A01 T02210212  RH  094%=      5-min Rain = 0
KCO2 231034Z 33002KT 22/21 A3006 RMK A01 T02210212  RH  094%=      5-min Rain = 0
KCO2 231035Z 33002KT 22/21 A3006 RMK A01 T02210212  RH  094%=      5-min Rain = 0
KCO2 231036Z 32002KT 22/21 A3006 RMK A01 T02210212  RH  095%=      5-min Rain = 0
KCO2 231037Z 32003KT 22/21 A3006 RMK A01 T02210212  RH  095%=      5-min Rain = 0
KCO2 231038Z 32003KT 22/21 A3006 RMK A01 T02210212  RH  095%=      5-min Rain = 0
KCO2 231039Z 32002KT 22/21 A3006 RMK A01 T02210212  RH  095%=      5-min Rain = 0
KCO2 231040Z 32002KT 22/21 A3006 RMK A01 T02210213  RH  095%=      5-min Rain = 0
KCO2 231041Z 32003KT 22/21 A3006 RMK A01 T02210213  RH  095%=      5-min Rain = 0
KCO2 231042Z 31003KT 22/21 A3006 RMK A01 T02210213  RH  095%=      5-min Rain = 0
KCO2 231043Z 31003KT 22/21 A3006 RMK A01 T02210213  RH  095%=      5-min Rain = 0
KCO2 231044Z 31003KT 22/21 A3006 RMK A01 T02200213  RH  095%=      5-min Rain = 0
KCO2 231045Z 31003KT 22/21 A3006 RMK A01 T02200213  RH  095%=      5-min Rain = 0
KCO2 231046Z 30002KT 22/21 A3006 RMK A01 T02210213  RH  095%=      5-min Rain = 0
KCO2 231047Z 30002KT 22/21 A3006 RMK A01 T02210213  RH  095%=      5-min Rain = 0
KCO2 231048Z 30002KT 22/21 A3006 RMK A01 T02210213  RH  095%=      5-min Rain = 0
KCO2 231049Z 29002KT 22/21 A3006 RMK A01 T02210213  RH  095%=      5-min Rain = 0
KCO2 231050Z 30002KT 22/21 A3006 RMK A01 T02210213  RH  095%=      5-min Rain = 0
KCO2 231051Z 30002KT 22/21 A3006 RMK A01 T02210213  RH  095%=      5-min Rain = 0
KCO2 231052Z 30002KT 22/21 A3006 RMK A01 T02200213  RH  095%=      5-min Rain = 0
KCO2 231053Z 29002KT 22/21 A3006 RMK A01 T02200213  RH  095%=      5-min Rain = 0
KCO2 231054Z 29002KT 22/21 A3006 RMK A01 T02200213  RH  095%=      5-min Rain = 0
KCO2 231055Z 29002KT 22/21 A3006 RMK A01 T02210213  RH  095%=      5-min Rain = 0
KCO2 231056Z 29002KT 22/21 A3006 RMK A01 T02210213  RH  095%=      5-min Rain = 0
KCO2 231057Z 29002KT 22/21 A3006 RMK A01 T02200213  RH  095%=      5-min Rain = 0
KCO2 231058Z 30002KT 22/21 A3006 RMK A01 T02200213  RH  096%=      5-min Rain = 0
KCO2 231059Z 30002KT 22/21 A3006 RMK A01 T02200213  RH  096%=      5-min Rain = 0
KCO2 231100Z 30002KT 22/21 A3006 RMK A01 T02200213  RH  096%=      5-min Rain = 0
KCO2 231101Z 30002KT 22/21 A3006 RMK A01 T02200213  RH  096%=      5-min Rain = 0
KCO2 231102Z 30001KT 22/21 A3007 RMK A01 T02200213  RH  096%=      5-min Rain = 0
KCO2 231103Z 30001KT 22/21 A3007 RMK A01 T02200213  RH  096%=      5-min Rain = 0
KCO2 231104Z 30001KT 22/21 A3007 RMK A01 T02200213  RH  096%=      5-min Rain = 0
KCO2 231105Z 30000KT 22/21 A3007 RMK A01 T02200213  RH  096%=      5-min Rain = 0
KCO2 231106Z 00000KT 22/21 A3007 RMK A01 T02200213  RH  096%=      5-min Rain = 0
KCO2 231107Z 00000KT 22/21 A3007 RMK A01 T02200212  RH  096%=      5-min Rain = 0
KCO2 231108Z 00000KT 22/21 A3007 RMK A01 T02200212  RH  096%=      5-min Rain = 0
KCO2 231109Z 00000KT 22/21 A3007 RMK A01 T02200212  RH  096%=      5-min Rain = 0
KCO2 231110Z 00000KT 22/21 A3007 RMK A01 T02200212  RH  096%=      5-min Rain = 0
KCO2 231111Z 00000KT 22/21 A3007 RMK A01 T02190212  RH  096%=      5-min Rain = 0
KCO2 231112Z 00000KT 22/21 A3007 RMK A01 T02190211  RH  095%=      5-min Rain = 0
KCO2 231113Z 00000KT 22/21 A3007 RMK A01 T02190212  RH  095%=      5-min Rain = 0
KCO2 231114Z 00000KT 22/21 A3007 RMK A01 T02190212  RH  095%=      5-min Rain = 0
KCO2 231115Z 00000KT 22/21 A3007 RMK A01 T02200212  RH  096%=      5-min Rain = 0
KCO2 231116Z 00000KT 22/21 A3007 RMK A01 T02200212  RH  096%=      5-min Rain = 0
KCO2 231117Z 00000KT 22/21 A3007 RMK A01 T02200212  RH  096%=      5-min Rain = 0
KCO2 231118Z 00000KT 22/21 A3007 RMK A01 T02200213  RH  096%=      5-min Rain = 0
KCO2 231119Z 00000KT 22/21 A3007 RMK A01 T02200213  RH  096%=      5-min Rain = 0
KCO2 231120Z 00000KT 22/21 A3007 RMK A01 T02200213  RH  096%=      5-min Rain = 0
KCO2 231121Z 18000KT 22/21 A3007 RMK A01 T02190212  RH  096%=      5-min Rain = 0
KCO2 231122Z 17001KT 22/21 A3007 RMK A01 T02200213  RH  096%=      5-min Rain = 0
KCO2 231123Z 15002KT 22/21 A3007 RMK A01 T02200213  RH  096%=      5-min Rain = 0
KCO2 231124Z 14003KT 22/21 A3007 RMK A01 T02190213  RH  096%=      5-min Rain = 0
KCO2 231125Z 13003KT 22/21 A3007 RMK A01 T02200213  RH  096%=      5-min Rain = 0
KCO2 231126Z 13003KT 22/21 A3007 RMK A01 T02190213  RH  096%=      5-min Rain = 0
KCO2 231127Z 13003KT 22/21 A3008 RMK A01 T02200213  RH  096%=      5-min Rain = 0
KCO2 231128Z 14003KT 22/21 A3008 RMK A01 T02190213  RH  096%=      5-min Rain = 0
KCO2 231129Z 14003KT 22/21 A3008 RMK A01 T02190213  RH  096%=      5-min Rain = 0
KCO2 231130Z 14003KT 22/21 A3008 RMK A01 T02190213  RH  096%=      5-min Rain = 0
KCO2 231131Z 14003KT 22/21 A3008 RMK A01 T02190213  RH  096%=      5-min Rain = 0
KCO2 231132Z 14003KT 22/21 A3008 RMK A01 T02190213  RH  096%=      5-min Rain = 0
KCO2 231133Z 14002KT 22/21 A3008 RMK A01 T02190213  RH  096%=      5-min Rain = 0
KCO2 231134Z 15002KT 22/21 A3008 RMK A01 T02190213  RH  096%=      5-min Rain = 0
KCO2 231135Z 15002KT 22/21 A3008 RMK A01 T02190213  RH  096%=      5-min Rain = 0
KCO2 231136Z 15002KT 22/21 A3008 RMK A01 T02190213  RH  096%=      5-min Rain = 0
KCO2 231137Z 15002KT 22/21 A3008 RMK A01 T02180212  RH  096%=      5-min Rain = 0
KCO2 231138Z 15003KT 22/21 A3008 RMK A01 T02180212  RH  096%=      5-min Rain = 0
KCO2 231139Z 15003KT 22/21 A3008 RMK A01 T02180213  RH  096%=      5-min Rain = 0
KCO2 231140Z 14003KT 22/21 A3008 RMK A01 T02180212  RH  096%=      5-min Rain = 0
KCO2 231141Z 14003KT 22/21 A3008 RMK A01 T02180212  RH  097%=      5-min Rain = 0
KCO2 231142Z 14003KT 22/21 A3008 RMK A01 T02180212  RH  097%=      5-min Rain = 0
KCO2 231143Z 14003KT 22/21 A3008 RMK A01 T02180212  RH  097%=      5-min Rain = 0
KCO2 231144Z 14003KT 22/21 A3008 RMK A01 T02180213  RH  097%=      5-min Rain = 0
KCO2 231145Z 15003KT 22/21 A3008 RMK A01 T02180212  RH  097%=      5-min Rain = 0
KCO2 231146Z 15002KT 22/21 A3008 RMK A01 T02180212  RH  097%=      5-min Rain = 0
KCO2 231147Z 15002KT 22/21 A3008 RMK A01 T02180213  RH  097%=      5-min Rain = 0
KCO2 231148Z 16002KT 22/21 A3008 RMK A01 T02180212  RH  097%=      5-min Rain = 0
KCO2 231149Z 16002KT 22/21 A3008 RMK A01 T02180212  RH  097%=      5-min Rain = 0
KCO2 231150Z 16002KT 22/21 A3008 RMK A01 T02180212  RH  097%=      5-min Rain = 0
KCO2 231151Z 16002KT 22/21 A3008 RMK A01 T02180212  RH  097%=      5-min Rain = 0
KCO2 231152Z 17002KT 22/21 A3008 RMK A01 T02180212  RH  097%=      5-min Rain = 0
KCO2 231153Z 17002KT 22/21 A3008 RMK A01 T02180213  RH  097%=      5-min Rain = 0
KCO2 231154Z 17002KT 22/21 A3008 RMK A01 T02180213  RH  097%=      5-min Rain = 0
KCO2 231155Z 17002KT 22/21 A3008 RMK A01 T02180212  RH  097%=      5-min Rain = 0
KCO2 231156Z 17002KT 22/21 A3008 RMK A01 T02180212  RH  097%=      5-min Rain = 0
KCO2 231157Z 17002KT 22/21 A3008 RMK A01 T02180212  RH  097%=      5-min Rain = 0
KCO2 231158Z 17001KT 22/21 A3008 RMK A01 T02180212  RH  097%=      5-min Rain = 0
KCO2 231159Z 17001KT 22/21 A3008 RMK A01 T02180212  RH  097%=      5-min Rain = 0
KCO2 231200Z 18001KT 22/21 A3008 RMK A01 T02180212  RH  097%=      5-min Rain = 0
KCO2 231201Z 18001KT 22/21 A3008 RMK A01 T02180212  RH  097%=      5-min Rain = 0
KCO2 231202Z 19001KT 22/21 A3008 RMK A01 T02180213  RH  097%=      5-min Rain = 0
KCO2 231203Z 19001KT 22/21 A3008 RMK A01 T02180213  RH  097%=      5-min Rain = 0
KCO2 231204Z 19001KT 22/21 A3008 RMK A01 T02180212  RH  097%=      5-min Rain = 0
KCO2 231205Z 20001KT 22/21 A3008 RMK A01 T02180212  RH  096%=      5-min Rain = 0
KCO2 231206Z 20001KT 22/21 A3008 RMK A01 T02180212  RH  096%=      5-min Rain = 0
KCO2 231207Z 20001KT 22/21 A3008 RMK A01 T02180212  RH  096%=      5-min Rain = 0
KCO2 231208Z 21001KT 22/21 A3008 RMK A01 T02180212  RH  096%=      5-min Rain = 0
KCO2 231209Z 21001KT 22/21 A3008 RMK A01 T02180212  RH  096%=      5-min Rain = 0
KCO2 231210Z 21001KT 22/21 A3008 RMK A01 T02180212  RH  096%=      5-min Rain = 0
KCO2 231211Z 21001KT 22/21 A3008 RMK A01 T02180212  RH  096%=      5-min Rain = 0
KCO2 231212Z 20001KT 22/21 A3008 RMK A01 T02180212  RH  096%=      5-min Rain = 0
KCO2 231213Z 20001KT 22/21 A3008 RMK A01 T02180211  RH  096%=      5-min Rain = 0
KCO2 231214Z 19001KT 22/21 A3008 RMK A01 T02190211  RH  095%=      5-min Rain = 0
KCO2 231215Z 19001KT 22/21 A3008 RMK A01 T02190211  RH  095%=      5-min Rain = 0
KCO2 231216Z 19002KT 22/21 A3008 RMK A01 T02200211  RH  095%=      5-min Rain = 0
KCO2 231217Z 19001KT 22/21 A3008 RMK A01 T02200211  RH  095%=      5-min Rain = 0
KCO2 231218Z 20001KT 22/21 A3008 RMK A01 T02200211  RH  094%=      5-min Rain = 0
KCO2 231219Z 18001KT 22/21 A3008 RMK A01 T02210211  RH  094%=      5-min Rain = 0
KCO2 231220Z 17001KT 22/21 A3008 RMK A01 T02210210  RH  094%=      5-min Rain = 0
KCO2 231221Z 17001KT 22/21 A3008 RMK A01 T02210209  RH  093%=      5-min Rain = 0
KCO2 231222Z 17000KT 22/21 A3008 RMK A01 T02200209  RH  093%=      5-min Rain = 0
KCO2 231223Z 00000KT 22/21 A3008 RMK A01 T02210209  RH  093%=      5-min Rain = 0
KCO2 231224Z 00000KT 22/21 A3008 RMK A01 T02220211  RH  093%=      5-min Rain = 0
KCO2 231225Z 00000KT 22/21 A3008 RMK A01 T02220210  RH  093%=      5-min Rain = 0
KCO2 231226Z 03001KT 22/21 A3008 RMK A01 T02220210  RH  093%=      5-min Rain = 0
KCO2 231227Z 02002KT 22/21 A3008 RMK A01 T02220211  RH  094%=      5-min Rain = 0
KCO2 231228Z 02002KT 22/21 A3008 RMK A01 T02220212  RH  094%=      5-min Rain = 0
KCO2 231229Z 02001KT 22/21 A3008 RMK A01 T02220212  RH  094%=      5-min Rain = 0
KCO2 231230Z 01001KT 22/21 A3008 RMK A01 T02220212  RH  094%=      5-min Rain = 0
KCO2 231231Z 00001KT 22/21 A3008 RMK A01 T02220212  RH  094%=      5-min Rain = 0
KCO2 231232Z 00002KT 22/21 A3008 RMK A01 T02220212  RH  094%=      5-min Rain = 0
KCO2 231233Z 35001KT 22/21 A3008 RMK A01 T02210212  RH  094%=      5-min Rain = 0
KCO2 231234Z 34002KT 22/21 A3008 RMK A01 T02210212  RH  094%=      5-min Rain = 0
KCO2 231235Z 35003KT 22/21 A3009 RMK A01 T02210212  RH  095%=      5-min Rain = 0
KCO2 231236Z 35002KT 22/21 A3009 RMK A01 T02200212  RH  095%=      5-min Rain = 0
KCO2 231237Z 35002KT 22/21 A3009 RMK A01 T02200212  RH  095%=      5-min Rain = 0
KCO2 231238Z 00002KT 22/21 A3009 RMK A01 T02200212  RH  095%=      5-min Rain = 0
KCO2 231239Z 00001KT 22/21 A3009 RMK A01 T02200212  RH  095%=      5-min Rain = 0
KCO2 231240Z 01001KT 22/21 A3009 RMK A01 T02200212  RH  095%=      5-min Rain = 0
KCO2 231241Z 01002KT 22/21 A3009 RMK A01 T02200212  RH  096%=      5-min Rain = 0
KCO2 231242Z 01002KT 22/21 A3009 RMK A01 T02200213  RH  096%=      5-min Rain = 0
KCO2 231243Z 02002KT 22/21 A3009 RMK A01 T02200213  RH  096%=      5-min Rain = 0
KCO2 231244Z 02002KT 22/21 A3009 RMK A01 T02200213  RH  096%=      5-min Rain = 0
KCO2 231245Z 03002KT 22/21 A3009 RMK A01 T02210214  RH  096%=      5-min Rain = 0
KCO2 231246Z 03002KT 22/21 A3009 RMK A01 T02210214  RH  096%=      5-min Rain = 0
KCO2 231247Z 04002KT 22/22 A3009 RMK A01 T02220215  RH  096%=      5-min Rain = 0
KCO2 231248Z 04001KT 22/22 A3009 RMK A01 T02220215  RH  096%=      5-min Rain = 0
KCO2 231249Z 05001KT 22/22 A3009 RMK A01 T02220216  RH  096%=      5-min Rain = 0
KCO2 231250Z 05001KT 22/22 A3009 RMK A01 T02230216  RH  096%=      5-min Rain = 0
KCO2 231251Z 05002KT 22/22 A3009 RMK A01 T02230216  RH  096%=      5-min Rain = 0
KCO2 231252Z 04002KT 22/22 A3009 RMK A01 T02230216  RH  096%=      5-min Rain = 0
KCO2 231253Z 05002KT 22/22 A3009 RMK A01 T02230215  RH  095%=      5-min Rain = 0
KCO2 231254Z 06001KT 22/22 A3009 RMK A01 T02230215  RH  095%=      5-min Rain = 0
KCO2 231255Z 06001KT 22/21 A3009 RMK A01 T02230214  RH  095%=      5-min Rain = 0
KCO2 231256Z 07001KT 22/21 A3009 RMK A01 T02230214  RH  095%=      5-min Rain = 0
KCO2 231257Z 06001KT 22/21 A3009 RMK A01 T02230214  RH  095%=      5-min Rain = 0
KCO2 231258Z 05001KT 22/21 A3009 RMK A01 T02240214  RH  094%=      5-min Rain = 0
KCO2 231259Z 06001KT 22/21 A3009 RMK A01 T02240214  RH  094%=      5-min Rain = 0
KCO2 231300Z 07001KT 22/21 A3009 RMK A01 T02240214  RH  094%=      5-min Rain = 0
KCO2 231301Z 09001KT 23/21 A3009 RMK A01 T02250214  RH  094%=      5-min Rain = 0
KCO2 231302Z 11002KT 23/21 A3009 RMK A01 T02250214  RH  093%=      5-min Rain = 0
KCO2 231303Z 12002KT 23/22 A3009 RMK A01 T02260215  RH  093%=      5-min Rain = 0
KCO2 231304Z 12002KT 23/22 A3009 RMK A01 T02260215  RH  093%=      5-min Rain = 0
KCO2 231305Z 12002KT 23/22 A3009 RMK A01 T02260215  RH  093%=      5-min Rain = 0
KCO2 231306Z 12002KT 23/22 A3009 RMK A01 T02260215  RH  093%=      5-min Rain = 0
KCO2 231307Z 12002KT 23/22 A3009 RMK A01 T02260215  RH  093%=      5-min Rain = 0
KCO2 231308Z 12002KT 23/21 A3009 RMK A01 T02260214  RH  093%=      5-min Rain = 0
KCO2 231309Z 12002KT 23/21 A3009 RMK A01 T02250214  RH  093%=      5-min Rain = 0
KCO2 231310Z 12002KT 23/21 A3009 RMK A01 T02260214  RH  093%=      5-min Rain = 0
KCO2 231311Z 12002KT 23/21 A3009 RMK A01 T02250214  RH  093%=      5-min Rain = 0
KCO2 231312Z 12002KT 23/21 A3009 RMK A01 T02250213  RH  093%=      5-min Rain = 0
KCO2 231313Z 12002KT 23/21 A3009 RMK A01 T02250213  RH  093%=      5-min Rain = 0
KCO2 231314Z 13001KT 23/21 A301 RMK A01 T02250213  RH  093%=      5-min Rain = 0
KCO2 231315Z 13001KT 23/21 A301 RMK A01 T02250213  RH  093%=      5-min Rain = 0
KCO2 231316Z 13001KT 23/21 A301 RMK A01 T02260214  RH  093%=      5-min Rain = 0
KCO2 231317Z 13001KT 23/21 A301 RMK A01 T02260214  RH  093%=      5-min Rain = 0
KCO2 231318Z 13002KT 23/22 A301 RMK A01 T02270215  RH  093%=      5-min Rain = 0
KCO2 231319Z 14002KT 23/22 A301 RMK A01 T02270216  RH  093%=      5-min Rain = 0
KCO2 231320Z 13002KT 23/22 A301 RMK A01 T02270216  RH  094%=      5-min Rain = 0
KCO2 231321Z 13002KT 23/22 A301 RMK A01 T02270217  RH  094%=      5-min Rain = 0
KCO2 231322Z 13002KT 23/22 A301 RMK A01 T02270217  RH  094%=      5-min Rain = 0
KCO2 231323Z 14002KT 23/22 A301 RMK A01 T02280218  RH  094%=      5-min Rain = 0
KCO2 231324Z 13001KT 23/22 A301 RMK A01 T02280218  RH  094%=      5-min Rain = 0
KCO2 231325Z 13001KT 23/22 A301 RMK A01 T02280218  RH  094%=      5-min Rain = 0
KCO2 231326Z 12001KT 23/22 A301 RMK A01 T02280219  RH  095%=      5-min Rain = 0
KCO2 231327Z 11001KT 23/22 A301 RMK A01 T02280219  RH  095%=      5-min Rain = 0
KCO2 231328Z 11002KT 23/22 A301 RMK A01 T02280219  RH  095%=      5-min Rain = 0
KCO2 231329Z 11002KT 23/22 A301 RMK A01 T02280219  RH  095%=      5-min Rain = 0
KCO2 231330Z 11001KT 23/22 A301 RMK A01 T02280218  RH  094%=      5-min Rain = 0
KCO2 231331Z 11001KT 23/22 A301 RMK A01 T02280218  RH  094%=      5-min Rain = 0
KCO2 231332Z 11001KT 23/22 A301 RMK A01 T02270218  RH  094%=      5-min Rain = 0
KCO2 231333Z 12001KT 23/22 A3011 RMK A01 T02280218  RH  094%=      5-min Rain = 0
KCO2 231334Z 12000KT 23/22 A301 RMK A01 T02270218  RH  094%=      5-min Rain = 0
KCO2 231335Z 11000KT 23/22 A301 RMK A01 T02270218  RH  094%=      5-min Rain = 0
KCO2 231336Z 10001KT 23/22 A301 RMK A01 T02280218  RH  094%=      5-min Rain = 0
KCO2 231337Z 07001KT 23/22 A301 RMK A01 T02280218  RH  094%=      5-min Rain = 0
KCO2 231338Z 05001KT 23/22 A3011 RMK A01 T02280218  RH  094%=      5-min Rain = 0
KCO2 231339Z 04000KT 23/22 A3011 RMK A01 T02290219  RH  094%=      5-min Rain = 0
KCO2 231340Z 00000KT 23/22 A3011 RMK A01 T02290219  RH  094%=      5-min Rain = 0
KCO2 231341Z 35000KT 23/22 A3011 RMK A01 T02290219  RH  094%=      5-min Rain = 0
KCO2 231342Z 35001KT 23/22 A3011 RMK A01 T02290218  RH  094%=      5-min Rain = 0
KCO2 231343Z 35001KT 23/22 A3011 RMK A01 T02290219  RH  094%=      5-min Rain = 0
KCO2 231344Z 35001KT 23/22 A3011 RMK A01 T02300219  RH  093%=      5-min Rain = 0
KCO2 231345Z 35001KT 23/22 A3011 RMK A01 T02300219  RH  094%=      5-min Rain = 0
KCO2 231346Z 00001KT 23/22 A3011 RMK A01 T02310219  RH  093%=      5-min Rain = 0
KCO2 231347Z 00001KT 23/22 A3011 RMK A01 T02300219  RH  093%=      5-min Rain = 0
KCO2 231348Z 34001KT 23/22 A3011 RMK A01 T02310219  RH  093%=      5-min Rain = 0
KCO2 231349Z 34001KT 23/22 A3011 RMK A01 T02310220  RH  093%=      5-min Rain = 0
KCO2 231350Z 34001KT 23/22 A3011 RMK A01 T02310219  RH  093%=      5-min Rain = 0
KCO2 231351Z 34001KT 23/22 A3011 RMK A01 T02310218  RH  092%=      5-min Rain = 0
KCO2 231352Z 33001KT 23/22 A3011 RMK A01 T02320220  RH  093%=      5-min Rain = 0
KCO2 231353Z 33001KT 23/22 A3011 RMK A01 T02320220  RH  093%=      5-min Rain = 0
KCO2 231354Z 34001KT 23/22 A3011 RMK A01 T02330222  RH  093%=      5-min Rain = 0
KCO2 231355Z 35001KT 23/22 A3011 RMK A01 T02330222  RH  093%=      5-min Rain = 0
KCO2 231356Z 00000KT 23/22 A3011 RMK A01 T02340222  RH  093%=      5-min Rain = 0
KCO2 231357Z 02001KT 23/22 A3011 RMK A01 T02340222  RH  093%=      5-min Rain = 0
KCO2 231358Z 02001KT 23/22 A3011 RMK A01 T02340220  RH  092%=      5-min Rain = 0
KCO2 231359Z 04001KT 23/22 A3011 RMK A01 T02340221  RH  092%=      5-min Rain = 0
KCO2 231400Z 03001KT 23/22 A3011 RMK A01 T02340222  RH  093%=      5-min Rain = 0
KCO2 231401Z 03001KT 24/22 A3011 RMK A01 T02350220  RH  092%=      5-min Rain = 0
KCO2 231402Z 01001KT 24/22 A3011 RMK A01 T02350220  RH  091%=      5-min Rain = 0
KCO2 231403Z 34001KT 24/22 A3011 RMK A01 T02350218  RH  090%=      5-min Rain = 0
KCO2 231404Z 31001KT 24/22 A3011 RMK A01 T02350215  RH  088%=      5-min Rain = 0
KCO2 231405Z 31001KT 24/21 A3011 RMK A01 T02360214  RH  088%=      5-min Rain = 0
KCO2 231406Z 31002KT 24/21 A3011 RMK A01 T02360214  RH  088%=      5-min Rain = 0
KCO2 231407Z 33002KT 24/21 A3011 RMK A01 T02370213  RH  087%=      5-min Rain = 0
KCO2 231408Z 35002KT 24/21 A3011 RMK A01 T02370214  RH  087%=      5-min Rain = 0
KCO2 231409Z 00002KT 24/21 A301 RMK A01 T02370212  RH  086%=      5-min Rain = 0
KCO2 231410Z 01002KT 24/21 A301 RMK A01 T02380212  RH  085%=      5-min Rain = 0
KCO2 231411Z 02002KT 24/21 A301 RMK A01 T02380213  RH  086%=      5-min Rain = 0
KCO2 231412Z 01002KT 24/21 A301 RMK A01 T02390212  RH  085%=      5-min Rain = 0
KCO2 231413Z 35002KT 24/21 A3011 RMK A01 T02390212  RH  085%=      5-min Rain = 0
KCO2 231414Z 32001KT 24/21 A3011 RMK A01 T02390213  RH  086%=      5-min Rain = 0
KCO2 231415Z 31002KT 24/21 A3011 RMK A01 T02390213  RH  085%=      5-min Rain = 0
KCO2 231416Z 31002KT 24/21 A3011 RMK A01 T02400214  RH  085%=      5-min Rain = 0
KCO2 231417Z 31002KT 24/22 A3011 RMK A01 T02400216  RH  086%=      5-min Rain = 0
KCO2 231418Z 34003KT 24/22 A3011 RMK A01 T02410216  RH  086%=      5-min Rain = 0
KCO2 231419Z 35003KT 24/22 A3011 RMK A01 T02410216  RH  086%=      5-min Rain = 0
KCO2 231420Z 01003KT 24/21 A3011 RMK A01 T02400214  RH  085%=      5-min Rain = 0
KCO2 231421Z 01003KT 24/22 A3011 RMK A01 T02400215  RH  086%=      5-min Rain = 0
KCO2 231422Z 02003KT 24/21 A3011 RMK A01 T02400214  RH  085%=      5-min Rain = 0
KCO2 231423Z 02003KT 24/21 A3011 RMK A01 T02400213  RH  085%=      5-min Rain = 0
KCO2 231424Z 00002KT 24/21 A3011 RMK A01 T02400211  RH  084%=      5-min Rain = 0
KCO2 231425Z 01002KT 24/21 A3011 RMK A01 T02400212  RH  084%=      5-min Rain = 0
KCO2 231426Z 01003KT 24/21 A3011 RMK A01 T02400212  RH  084%=      5-min Rain = 0
KCO2 231427Z 01002KT 24/21 A3011 RMK A01 T02400212  RH  084%=      5-min Rain = 0
KCO2 231428Z 00002KT 24/21 A3011 RMK A01 T02400214  RH  085%=      5-min Rain = 0
KCO2 231429Z 00002KT 24/22 A3011 RMK A01 T02410215  RH  086%=      5-min Rain = 0
KCO2 231430Z 03003KT 24/22 A3011 RMK A01 T02410215  RH  086%=      5-min Rain = 0
KCO2 231431Z 03003KT 24/21 A3011 RMK A01 T02410213  RH  084%=      5-min Rain = 0
KCO2 231432Z 03003KT 24/21 A3011 RMK A01 T02410212  RH  084%=      5-min Rain = 0
KCO2 231433Z 02002KT 24/21 A3011 RMK A01 T02410213  RH  085%=      5-min Rain = 0
KCO2 231434Z 02003KT 24/21 A3011 RMK A01 T02410214  RH  085%=      5-min Rain = 0
KCO2 231435Z 02002KT 24/22 A3011 RMK A01 T02410215  RH  085%=      5-min Rain = 0
KCO2 231436Z 01003KT 24/21 A3011 RMK A01 T02410214  RH  085%=      5-min Rain = 0
KCO2 231437Z 01003KT 24/22 A3011 RMK A01 T02410215  RH  085%=      5-min Rain = 0
KCO2 231438Z 02003KT 24/22 A3011 RMK A01 T02410216  RH  086%=      5-min Rain = 0
KCO2 231439Z 02004KT 24/22 A3011 RMK A01 T02410215  RH  086%=      5-min Rain = 0
KCO2 231440Z 02003KT 24/21 A3011 RMK A01 T02410212  RH  084%=      5-min Rain = 0
KCO2 231441Z 02003KT 24/21 A3011 RMK A01 T02410213  RH  084%=      5-min Rain = 0
KCO2 231442Z 02003KT 24/21 A3011 RMK A01 T02410214  RH  085%=      5-min Rain = 0
KCO2 231443Z 02003KT 24/22 A3011 RMK A01 T02410215  RH  085%=      5-min Rain = 0
KCO2 231444Z 03003KT 24/21 A3011 RMK A01 T02420214  RH  085%=      5-min Rain = 0
KCO2 231445Z 03002KT 24/21 A3011 RMK A01 T02420214  RH  084%=      5-min Rain = 0
KCO2 231446Z 05002KT 24/21 A3011 RMK A01 T02420213  RH  084%=      5-min Rain = 0
KCO2 231447Z 05002KT 24/21 A3011 RMK A01 T02420211  RH  083%=      5-min Rain = 0
KCO2 231448Z 04002KT 24/21 A3011 RMK A01 T02420211  RH  083%=      5-min Rain = 0
KCO2 231449Z 03003KT 24/21 A3011 RMK A01 T02420210  RH  082%=      5-min Rain = 0
KCO2 231450Z 03003KT 24/21 A3011 RMK A01 T02420211  RH  083%=      5-min Rain = 0
KCO2 231451Z 03002KT 24/21 A3011 RMK A01 T02430213  RH  083%=      5-min Rain = 0
KCO2 231452Z 03003KT 24/21 A3011 RMK A01 T02440214  RH  083%=      5-min Rain = 0
KCO2 231453Z 03003KT 25/21 A3011 RMK A01 T02450214  RH  083%=      5-min Rain = 0
KCO2 231454Z 03003KT 25/21 A3011 RMK A01 T02450214  RH  083%=      5-min Rain = 0
KCO2 231455Z 05003KT 25/21 A3011 RMK A01 T02450213  RH  082%=      5-min Rain = 0
KCO2 231456Z 06003KT 25/21 A3011 RMK A01 T02450213  RH  082%=      5-min Rain = 0
KCO2 231457Z 04003KT 25/22 A3011 RMK A01 T02450215  RH  083%=      5-min Rain = 0
KCO2 231458Z 07003KT 25/22 A3011 RMK A01 T02450216  RH  084%=      5-min Rain = 0
KCO2 231459Z 07002KT 25/21 A3011 RMK A01 T02460212  RH  082%=      5-min Rain = 0
KCO2 231500Z 07003KT 25/21 A3011 RMK A01 T02460213  RH  082%=      5-min Rain = 0
KCO2 231501Z 07002KT 25/21 A3011 RMK A01 T02460213  RH  082%=      5-min Rain = 0
KCO2 231502Z 07003KT 25/21 A3011 RMK A01 T02460212  RH  081%=      5-min Rain = 0
KCO2 231503Z 07002KT 25/21 A3011 RMK A01 T02450213  RH  082%=      5-min Rain = 0
KCO2 231504Z 06004KT 25/22 A3012 RMK A01 T02460215  RH  083%=      5-min Rain = 0
KCO2 231505Z 06004KT 25/21 A3012 RMK A01 T02470214  RH  082%=      5-min Rain = 0
KCO2 231506Z 07004KT 25/21 A3012 RMK A01 T02470213  RH  082%=      5-min Rain = 0
KCO2 231507Z 07004KT 25/21 A3012 RMK A01 T02470214  RH  082%=      5-min Rain = 0
KCO2 231508Z 05004KT 25/22 A3012 RMK A01 T02470216  RH  083%=      5-min Rain = 0
KCO2 231509Z 05004KT 25/21 A3012 RMK A01 T02480214  RH  082%=      5-min Rain = 0
KCO2 231510Z 06004KT 25/21 A3012 RMK A01 T02480214  RH  082%=      5-min Rain = 0
KCO2 231511Z 06004KT 25/22 A3012 RMK A01 T02480215  RH  082%=      5-min Rain = 0
KCO2 231512Z 06005KT 25/22 A3012 RMK A01 T02480215  RH  082%=      5-min Rain = 0
KCO2 231513Z 07004KT 25/22 A3012 RMK A01 T02480216  RH  082%=      5-min Rain = 0
KCO2 231514Z 07004KT 25/22 A3012 RMK A01 T02480215  RH  082%=      5-min Rain = 0
KCO2 231515Z 07004KT 25/22 A3012 RMK A01 T02490216  RH  082%=      5-min Rain = 0
KCO2 231516Z 07005KT 25/22 A3012 RMK A01 T02490215  RH  081%=      5-min Rain = 0
KCO2 231517Z 08005KT 25/22 A3012 RMK A01 T02490215  RH  081%=      5-min Rain = 0
KCO2 231518Z 07005KT 25/22 A3012 RMK A01 T02490215  RH  081%=      5-min Rain = 0
KCO2 231519Z 07005KT 25/21 A3012 RMK A01 T02490214  RH  081%=      5-min Rain = 0
KCO2 231520Z 09004KT 25/22 A3012 RMK A01 T02490215  RH  081%=      5-min Rain = 0
KCO2 231521Z 09004KT 25/21 A3012 RMK A01 T02490214  RH  081%=      5-min Rain = 0
KCO2 231522Z 08004KT 25/22 A3012 RMK A01 T02490215  RH  081%=      5-min Rain = 0
KCO2 231523Z 08004KT 25/22 A3012 RMK A01 T02510215  RH  080%=      5-min Rain = 0
KCO2 231524Z 08005KT 25/22 A3012 RMK A01 T02520215  RH  080%=      5-min Rain = 0
KCO2 231525Z 09006KT 25/21 A3012 RMK A01 T02530214  RH  079%=      5-min Rain = 0
KCO2 231526Z 09005KT 25/21 A3012 RMK A01 T02530214  RH  079%=      5-min Rain = 0
KCO2 231527Z 11005KT 26/22 A3012 RMK A01 T02550215  RH  079%=      5-min Rain = 0
KCO2 231528Z 10005KT 26/22 A3012 RMK A01 T02560217  RH  079%=      5-min Rain = 0
KCO2 231529Z 08006KT 26/22 A3012 RMK A01 T02580217  RH  078%=      5-min Rain = 0
KCO2 231530Z 09006KT 26/22 A3012 RMK A01 T02600215  RH  076%=      5-min Rain = 0
KCO2 231531Z 11005KT 26/22 A3012 RMK A01 T02600215  RH  076%=      5-min Rain = 0
KCO2 231532Z 11005KT 26/22 A3012 RMK A01 T02620218  RH  077%=      5-min Rain = 0
KCO2 231533Z 11006KT 26/22 A3012 RMK A01 T02640218  RH  076%=      5-min Rain = 0
KCO2 231534Z 10004KT 26/22 A3012 RMK A01 T02640219  RH  076%=      5-min Rain = 0
KCO2 231535Z 10004KT 26/22 A3012 RMK A01 T02640218  RH  076%=      5-min Rain = 0
KCO2 231536Z 10004KT 26/22 A3012 RMK A01 T02640216  RH  075%=      5-min Rain = 0
KCO2 231537Z 09007KT 26/22 A3012 RMK A01 T02630218  RH  076%=      5-min Rain = 0
KCO2 231538Z 06006KT 26/21 A3012 RMK A01 T02620214  RH  075%=      5-min Rain = 0
KCO2 231539Z 09005KT 26/22 A3012 RMK A01 T02620216  RH  076%=      5-min Rain = 0
KCO2 231540Z 11004KT 26/21 A3012 RMK A01 T02620214  RH  075%=      5-min Rain = 0
KCO2 231541Z 09003KT 26/22 A3012 RMK A01 T02620215  RH  075%=      5-min Rain = 0
KCO2 231542Z 09003KT 26/21 A3012 RMK A01 T02630214  RH  075%=      5-min Rain = 0
KCO2 231543Z 10005KT 26/22 A3012 RMK A01 T02630215  RH  075%=      5-min Rain = 0
KCO2 231544Z 11001KT 26/21 A3012 RMK A01 T02640208  RH  071%=      5-min Rain = 0
KCO2 231545Z 11004KT 26/21 A3012 RMK A01 T02630210  RH  072%=      5-min Rain = 0
KCO2 231546Z 09006KT 26/21 A3012 RMK A01 T02630213  RH  074%=      5-min Rain = 0
KCO2 231547Z 08004KT 26/21 A3012 RMK A01 T02630214  RH  074%=      5-min Rain = 0
KCO2 231548Z 08004KT 26/21 A3012 RMK A01 T02640213  RH  074%=      5-min Rain = 0
KCO2 231549Z 11005KT 27/21 A3012 RMK A01 T02650213  RH  073%=      5-min Rain = 0
KCO2 231550Z 10006KT 27/21 A3012 RMK A01 T02680214  RH  072%=      5-min Rain = 0
KCO2 231551Z 11002KT 27/21 A3012 RMK A01 T02700213  RH  071%=      5-min Rain = 0
KCO2 231552Z 09000KT 27/22 A3012 RMK A01 T02720215  RH  071%=      5-min Rain = 0
KCO2 231553Z 07001KT 28/21 A3012 RMK A01 T02750213  RH  069%=      5-min Rain = 0
KCO2 231554Z 08002KT 28/21 A3012 RMK A01 T02760210  RH  068%=      5-min Rain = 0
KCO2 231555Z 11001KT 28/21 A3012 RMK A01 T02760210  RH  068%=      5-min Rain = 0
KCO2 231556Z 13004KT 28/21 A3012 RMK A01 T02770208  RH  066%=      5-min Rain = 0
KCO2 231557Z 12002KT 28/21 A3012 RMK A01 T02770206  RH  065%=      5-min Rain = 0
KCO2 231558Z 05003KT 28/21 A3012 RMK A01 T02770206  RH  065%=      5-min Rain = 0
KCO2 231559Z 03001KT 28/21 A3012 RMK A01 T02770206  RH  065%=      5-min Rain = 0
KCO2 231600Z 09001KT 28/21 A3012 RMK A01 T02770206  RH  065%=      5-min Rain = 0
KCO2 231601Z 17002KT 28/21 A3012 RMK A01 T02770208  RH  066%=      5-min Rain = 0
KCO2 231602Z 19003KT 28/21 A3012 RMK A01 T02790206  RH  065%=      5-min Rain = 0
KCO2 231603Z 19004KT 28/21 A3012 RMK A01 T02790207  RH  065%=      5-min Rain = 0
KCO2 231604Z 20004KT 28/21 A3012 RMK A01 T02790207  RH  065%=      5-min Rain = 0
KCO2 231605Z 17004KT 28/21 A3012 RMK A01 T02790210  RH  066%=      5-min Rain = 0
KCO2 231606Z 16003KT 28/21 A3012 RMK A01 T02800209  RH  065%=      5-min Rain = 0
KCO2 231607Z 16004KT 28/21 A3012 RMK A01 T02800212  RH  067%=      5-min Rain = 0
KCO2 231608Z 16003KT 28/21 A3012 RMK A01 T02800211  RH  066%=      5-min Rain = 0
KCO2 231609Z 18003KT 28/21 A3012 RMK A01 T02810211  RH  066%=      5-min Rain = 0
KCO2 231610Z 18002KT 28/21 A3012 RMK A01 T02800209  RH  065%=      5-min Rain = 0
KCO2 231611Z 15005KT 28/21 A3012 RMK A01 T02790210  RH  066%=      5-min Rain = 0
KCO2 231612Z 15005KT 28/21 A3012 RMK A01 T02800208  RH  065%=      5-min Rain = 0
KCO2 231613Z 18003KT 28/21 A3012 RMK A01 T02790206  RH  065%=      5-min Rain = 0
KCO2 231614Z 13004KT 28/21 A3012 RMK A01 T02780206  RH  065%=      5-min Rain = 0
KCO2 231615Z 16005KT 28/21 A3012 RMK A01 T02780206  RH  065%=      5-min Rain = 0
KCO2 231616Z 18006KT 28/21 A3012 RMK A01 T02780207  RH  065%=      5-min Rain = 0
KCO2 231617Z 20004KT 28/21 A3012 RMK A01 T02790207  RH  065%=      5-min Rain = 0
KCO2 231618Z 17002KT 28/21 A3012 RMK A01 T02790209  RH  066%=      5-min Rain = 0
KCO2 231619Z 12003KT 28/21 A3012 RMK A01 T02810209  RH  065%=      5-min Rain = 0
KCO2 231620Z 14006KT 28/21 A3012 RMK A01 T02810208  RH  064%=      5-min Rain = 0
KCO2 231621Z 16005KT 28/21 A3012 RMK A01 T02820207  RH  064%=      5-min Rain = 0
KCO2 231622Z 17005KT 28/21 A3012 RMK A01 T02830209  RH  064%=      5-min Rain = 0
KCO2 231623Z 19004KT 28/21 A3012 RMK A01 T02830207  RH  063%=      5-min Rain = 0
KCO2 231624Z 17002KT 28/21 A3012 RMK A01 T02820205  RH  063%=      5-min Rain = 0
KCO2 231625Z 18007KT 28/21 A3012 RMK A01 T02810207  RH  064%=      5-min Rain = 0
KCO2 231626Z 18005KT 28/21 A3012 RMK A01 T02830208  RH  064%=      5-min Rain = 0
KCO2 231627Z 20005KT 28/21 A3012 RMK A01 T02840207  RH  063%=      5-min Rain = 0
KCO2 231628Z 20002KT 28/21 A3012 RMK A01 T02830206  RH  063%=      5-min Rain = 0
KCO2 231629Z 21002KT 28/21 A3012 RMK A01 T02820207  RH  064%=      5-min Rain = 0
KCO2 231630Z 21003KT 28/21 A3012 RMK A01 T02820207  RH  064%=      5-min Rain = 0
KCO2 231631Z 15005KT 28/21 A3012 RMK A01 T02830208  RH  064%=      5-min Rain = 0
KCO2 231632Z 14005KT 28/21 A3012 RMK A01 T02840208  RH  064%=      5-min Rain = 0
KCO2 231633Z 18007KT 29/21 A3012 RMK A01 T02850209  RH  064%=      5-min Rain = 0
KCO2 231634Z 18008KT 29/21 A3011 RMK A01 T02850208  RH  063%=      5-min Rain = 0
KCO2 231635Z 19007KT 28/21 A3011 RMK A01 T02840208  RH  063%=      5-min Rain = 0
KCO2 231636Z 20005KT 29/21 A3011 RMK A01 T02850209  RH  063%=      5-min Rain = 0
KCO2 231637Z 21005KT 29/21 A3011 RMK A01 T02850207  RH  063%=      5-min Rain = 0
KCO2 231638Z 21005KT 29/21 A3011 RMK A01 T02850206  RH  062%=      5-min Rain = 0
KCO2 231639Z 21004KT 28/21 A3011 RMK A01 T02830207  RH  063%=      5-min Rain = 0
KCO2 231640Z 19003KT 28/21 A3011 RMK A01 T02830210  RH  065%=      5-min Rain = 0
KCO2 231641Z 20003KT 29/21 A3011 RMK A01 T02870212  RH  064%=      5-min Rain = 0
KCO2 231642Z 19005KT 29/21 A3011 RMK A01 T02890210  RH  062%=      5-min Rain = 0
KCO2 231643Z 20007KT 29/21 A3011 RMK A01 T02920213  RH  062%=      5-min Rain = 0
KCO2 231644Z 18008KT 30/21 A3011 RMK A01 T02960210  RH  060%=      5-min Rain = 0
KCO2 231645Z 17007KT 30/21 A3011 RMK A01 T02960210  RH  060%=      5-min Rain = 0
KCO2 231646Z 18005KT 29/21 A3011 RMK A01 T02940208  RH  060%=      5-min Rain = 0
KCO2 231647Z 21008KT 29/21 A3011 RMK A01 T02930208  RH  060%=      5-min Rain = 0
KCO2 231648Z 20007KT 29/21 A3011 RMK A01 T02900208  RH  061%=      5-min Rain = 0
KCO2 231649Z 21006KT 29/21 A3011 RMK A01 T02900210  RH  062%=      5-min Rain = 0
KCO2 231650Z 21006KT 29/21 A3011 RMK A01 T02910207  RH  061%=      5-min Rain = 0
KCO2 231651Z 21007KT 29/21 A3011 RMK A01 T02880207  RH  062%=      5-min Rain = 0
KCO2 231652Z 21006KT 29/21 A3011 RMK A01 T02860206  RH  062%=      5-min Rain = 0
KCO2 231653Z 18006KT 29/21 A3011 RMK A01 T02850207  RH  063%=      5-min Rain = 0
KCO2 231654Z 17004KT 28/21 A3011 RMK A01 T02840206  RH  063%=      5-min Rain = 0
KCO2 231655Z 19006KT 29/21 A3011 RMK A01 T02850209  RH  063%=      5-min Rain = 0
KCO2 231656Z 18005KT 29/21 A3011 RMK A01 T02860206  RH  062%=      5-min Rain = 0
KCO2 231657Z 17006KT 29/21 A3011 RMK A01 T02860206  RH  062%=      5-min Rain = 0
KCO2 231658Z 17006KT 29/21 A3011 RMK A01 T02850207  RH  062%=      5-min Rain = 0
KCO2 231659Z 19006KT 29/21 A3011 RMK A01 T02850206  RH  062%=      5-min Rain = 0
KCO2 231700Z 20005KT 29/21 A3011 RMK A01 T02850206  RH  062%=      5-min Rain = 0
KCO2 231701Z 20004KT 29/21 A3011 RMK A01 T02850208  RH  063%=      5-min Rain = 0
KCO2 231702Z 19005KT 29/21 A301 RMK A01 T02870210  RH  063%=      5-min Rain = 0
KCO2 231703Z 17003KT 29/21 A3011 RMK A01 T02890208  RH  062%=      5-min Rain = 0
KCO2 231704Z 12003KT 29/21 A3011 RMK A01 T02900210  RH  062%=      5-min Rain = 0
KCO2 231705Z 11003KT 29/21 A301 RMK A01 T02910211  RH  062%=      5-min Rain = 0
KCO2 231706Z 18005KT 29/21 A301 RMK A01 T02930213  RH  062%=      5-min Rain = 0
KCO2 231707Z 19006KT 30/21 A301 RMK A01 T02950210  RH  060%=      5-min Rain = 0
KCO2 231708Z 17004KT 30/21 A301 RMK A01 T02960209  RH  060%=      5-min Rain = 0
KCO2 231709Z 21002KT 30/21 A301 RMK A01 T02960209  RH  059%=      5-min Rain = 0
KCO2 231710Z 12002KT 30/21 A301 RMK A01 T02950210  RH  060%=      5-min Rain = 0
KCO2 231711Z 13003KT 30/21 A301 RMK A01 T02960208  RH  059%=      5-min Rain = 0
KCO2 231712Z 10004KT 30/21 A301 RMK A01 T02970209  RH  059%=      5-min Rain = 0
KCO2 231713Z 10002KT 30/21 A301 RMK A01 T02970211  RH  060%=      5-min Rain = 0
KCO2 231714Z 15003KT 30/21 A301 RMK A01 T02970211  RH  060%=      5-min Rain = 0
KCO2 231715Z 15006KT 30/21 A301 RMK A01 T03000211  RH  059%=      5-min Rain = 0
KCO2 231716Z 14008KT 30/21 A301 RMK A01 T03020210  RH  058%=      5-min Rain = 0
KCO2 231717Z 12006KT 30/21 A301 RMK A01 T03030210  RH  058%=      5-min Rain = 0
KCO2 231718Z 11006KT 30/21 A3009 RMK A01 T03030211  RH  058%=      5-min Rain = 0
KCO2 231719Z 10004KT 30/21 A3009 RMK A01 T03020212  RH  058%=      5-min Rain = 0
KCO2 231720Z 06004KT 30/21 A3009 RMK A01 T03020209  RH  058%=      5-min Rain = 0
KCO2 231721Z 03003KT 30/21 A3009 RMK A01 T02990206  RH  058%=      5-min Rain = 0
KCO2 231722Z 09003KT 30/21 A3009 RMK A01 T02950207  RH  059%=      5-min Rain = 0
KCO2 231723Z 10004KT 29/21 A3009 RMK A01 T02940210  RH  061%=      5-min Rain = 0
KCO2 231724Z 13006KT 30/21 A3009 RMK A01 T02970210  RH  060%=      5-min Rain = 0
KCO2 231725Z 13008KT 30/21 A3009 RMK A01 T03000208  RH  058%=      5-min Rain = 0
KCO2 231726Z 15008KT 30/21 A3009 RMK A01 T03010209  RH  058%=      5-min Rain = 0
KCO2 231727Z 17007KT 30/21 A3009 RMK A01 T03020207  RH  057%=      5-min Rain = 0
KCO2 231728Z 15008KT 30/21 A3009 RMK A01 T03040209  RH  057%=      5-min Rain = 0
KCO2 231729Z 14008KT 31/21 A3009 RMK A01 T03060207  RH  056%=      5-min Rain = 0
KCO2 231730Z 16007KT 31/21 A3009 RMK A01 T03060207  RH  056%=      5-min Rain = 0
KCO2 231731Z 17009KT 31/21 A3009 RMK A01 T03060208  RH  056%=      5-min Rain = 0
KCO2 231732Z 17008KT 31/21 A3009 RMK A01 T03070206  RH  055%=      5-min Rain = 0
KCO2 231733Z 19003KT 31/21 A3009 RMK A01 T03050206  RH  055%=      5-min Rain = 0
KCO2 231734Z 17005KT 30/21 A3009 RMK A01 T03040210  RH  057%=      5-min Rain = 0
KCO2 231735Z 17007KT 31/21 A3009 RMK A01 T03050206  RH  055%=      5-min Rain = 0
KCO2 231736Z 17007KT 31/21 A3009 RMK A01 T03060206  RH  055%=      5-min Rain = 0
KCO2 231737Z 21007KT 31/21 A3009 RMK A01 T03060207  RH  055%=      5-min Rain = 0
KCO2 231738Z 20008KT 31/21 A3009 RMK A01 T03060208  RH  056%=      5-min Rain = 0
KCO2 231739Z 17003KT 31/21 A3009 RMK A01 T03050205  RH  055%=      5-min Rain = 0
KCO2 231740Z 17004KT 31/21 A3009 RMK A01 T03050208  RH  056%=      5-min Rain = 0
KCO2 231741Z 19005KT 31/21 A3009 RMK A01 T03070207  RH  055%=      5-min Rain = 0
KCO2 231742Z 17005KT 31/21 A3009 RMK A01 T03070208  RH  056%=      5-min Rain = 0
KCO2 231743Z 15005KT 31/21 A3009 RMK A01 T03080209  RH  056%=      5-min Rain = 0
KCO2 231744Z 17007KT 31/21 A3009 RMK A01 T03100208  RH  055%=      5-min Rain = 0
KCO2 231745Z 17005KT 31/21 A3009 RMK A01 T03100206  RH  054%=      5-min Rain = 0
KCO2 231746Z 15006KT 31/21 A3009 RMK A01 T03110210  RH  055%=      5-min Rain = 0
KCO2 231747Z 15011KT 32/21 A3009 RMK A01 T03150208  RH  053%=      5-min Rain = 0
KCO2 231748Z 14010KT 32/21 A3009 RMK A01 T03150206  RH  053%=      5-min Rain = 0
KCO2 231749Z 15009G14KT 31/21 A3008 RMK A01 T03120209  RH  054%=      5-min Rain = 0
KCO2 231750Z 18010KT 31/21 A3009 RMK A01 T03120206  RH  054%=      5-min Rain = 0
KCO2 231751Z 18008KT 31/20 A3008 RMK A01 T03080204  RH  054%=      5-min Rain = 0
KCO2 231752Z 18008KT 30/21 A3008 RMK A01 T03040207  RH  056%=      5-min Rain = 0
KCO2 231753Z 17006KT 30/21 A3008 RMK A01 T03040206  RH  056%=      5-min Rain = 0
KCO2 231754Z 18005KT 31/21 A3008 RMK A01 T03070207  RH  055%=      5-min Rain = 0
KCO2 231755Z 20006KT 31/21 A3008 RMK A01 T03090208  RH  055%=      5-min Rain = 0
KCO2 231756Z 19008KT 31/21 A3008 RMK A01 T03110206  RH  054%=      5-min Rain = 0
KCO2 231757Z 19008G15KT 31/21 A3008 RMK A01 T03110209  RH  055%=      5-min Rain = 0
KCO2 231758Z 18009KT 31/21 A3008 RMK A01 T03130207  RH  054%=      5-min Rain = 0
KCO2 231759Z 19008KT 31/21 A3008 RMK A01 T03120208  RH  054%=      5-min Rain = 0
KCO2 231800Z 18008KT 31/21 A3008 RMK A01 T03110207  RH  054%=      5-min Rain = 0
KCO2 231801Z 18004KT 31/21 A3008 RMK A01 T03070208  RH  055%=      5-min Rain = 0
KCO2 231802Z 19007KT 31/21 A3008 RMK A01 T03070207  RH  055%=      5-min Rain = 0
KCO2 231803Z 21008KT 31/21 A3008 RMK A01 T03070207  RH  055%=      5-min Rain = 0
KCO2 231804Z 20005KT 31/21 A3008 RMK A01 T03050207  RH  056%=      5-min Rain = 0
KCO2 231805Z 17006KT 30/21 A3008 RMK A01 T03030207  RH  057%=      5-min Rain = 0
KCO2 231806Z 16008KT 30/21 A3008 RMK A01 T03030208  RH  057%=      5-min Rain = 0
KCO2 231807Z 18006KT 30/21 A3008 RMK A01 T03040209  RH  057%=      5-min Rain = 0
KCO2 231808Z 18004KT 31/21 A3008 RMK A01 T03060209  RH  056%=      5-min Rain = 0
KCO2 231809Z 15005KT 31/21 A3008 RMK A01 T03060211  RH  057%=      5-min Rain = 0
KCO2 231810Z 15006KT 31/21 A3008 RMK A01 T03060209  RH  056%=      5-min Rain = 0
KCO2 231811Z 13004KT 31/21 A3008 RMK A01 T03060209  RH  056%=      5-min Rain = 0
KCO2 231812Z 14008KT 31/21 A3008 RMK A01 T03060209  RH  056%=      5-min Rain = 0
KCO2 231813Z 14007KT 31/21 A3008 RMK A01 T03050208  RH  056%=      5-min Rain = 0
KCO2 231814Z 15007KT 31/21 A3008 RMK A01 T03050209  RH  056%=      5-min Rain = 0
KCO2 231815Z 17004KT 31/21 A3008 RMK A01 T03060207  RH  055%=      5-min Rain = 0
KCO2 231816Z 19003KT 31/21 A3008 RMK A01 T03070207  RH  055%=      5-min Rain = 0
KCO2 231817Z 18003KT 31/21 A3008 RMK A01 T03090207  RH  055%=      5-min Rain = 0
KCO2 231818Z 18003KT 31/21 A3008 RMK A01 T03110209  RH  055%=      5-min Rain = 0
KCO2 231819Z 11004KT 31/21 A3008 RMK A01 T03120210  RH  055%=      5-min Rain = 0
KCO2 231820Z 10006KT 31/21 A3007 RMK A01 T03130212  RH  055%=      5-min Rain = 0
KCO2 231821Z 15006G12KT 31/21 A3007 RMK A01 T03120212  RH  055%=      5-min Rain = 0
KCO2 231822Z 17006KT 31/21 A3007 RMK A01 T03130209  RH  054%=      5-min Rain = 0
KCO2 231823Z 18008KT 31/21 A3007 RMK A01 T03120208  RH  054%=      5-min Rain = 0
KCO2 231824Z 15006KT 31/21 A3007 RMK A01 T03100209  RH  055%=      5-min Rain = 0
KCO2 231825Z 13004KT 31/21 A3007 RMK A01 T03100211  RH  056%=      5-min Rain = 0
KCO2 231826Z 12005KT 31/21 A3007 RMK A01 T03110210  RH  055%=      5-min Rain = 0
KCO2 231827Z 12006KT 31/21 A3007 RMK A01 T03120210  RH  055%=      5-min Rain = 0
KCO2 231828Z 15007KT 31/21 A3007 RMK A01 T03110210  RH  055%=      5-min Rain = 0
KCO2 231829Z 15008KT 31/21 A3007 RMK A01 T03120210  RH  055%=      5-min Rain = 0
KCO2 231830Z 15008KT 31/21 A3007 RMK A01 T03140209  RH  054%=      5-min Rain = 0
KCO2 231831Z 15008KT 32/21 A3007 RMK A01 T03150210  RH  054%=      5-min Rain = 0
KCO2 231832Z 14008KT 31/21 A3007 RMK A01 T03140209  RH  054%=      5-min Rain = 0
KCO2 231833Z 14006KT 31/21 A3007 RMK A01 T03120208  RH  054%=      5-min Rain = 0
KCO2 231834Z 14004KT 31/21 A3007 RMK A01 T03110208  RH  054%=      5-min Rain = 0
KCO2 231835Z 13003KT 31/21 A3006 RMK A01 T03090205  RH  054%=      5-min Rain = 0
KCO2 231836Z 15002KT 31/21 A3006 RMK A01 T03080210  RH  056%=      5-min Rain = 0
KCO2 231837Z 16001KT 31/21 A3006 RMK A01 T03090207  RH  054%=      5-min Rain = 0
KCO2 231838Z 11003KT 31/21 A3006 RMK A01 T03110209  RH  055%=      5-min Rain = 0
KCO2 231839Z 11003KT 31/21 A3006 RMK A01 T03110208  RH  054%=      5-min Rain = 0
KCO2 231840Z 07004KT 31/21 A3006 RMK A01 T03100210  RH  055%=      5-min Rain = 0
KCO2 231841Z 09004KT 31/21 A3006 RMK A01 T03070208  RH  055%=      5-min Rain = 0
KCO2 231842Z 10005KT 31/21 A3006 RMK A01 T03050209  RH  057%=      5-min Rain = 0
KCO2 231843Z 11004KT 30/21 A3006 RMK A01 T03040208  RH  057%=      5-min Rain = 0
KCO2 231844Z 11007KT 30/21 A3006 RMK A01 T03030211  RH  058%=      5-min Rain = 0
KCO2 231845Z 10004KT 30/21 A3006 RMK A01 T03030209  RH  057%=      5-min Rain = 0
KCO2 231846Z 05003KT 30/21 A3006 RMK A01 T03030208  RH  057%=      5-min Rain = 0
KCO2 231847Z 07002KT 30/21 A3006 RMK A01 T03010207  RH  057%=      5-min Rain = 0
KCO2 231848Z 11004G11KT 30/21 A3006 RMK A01 T03010209  RH  058%=      5-min Rain = 0
KCO2 231849Z 12009KT 30/21 A3005 RMK A01 T03010210  RH  058%=      5-min Rain = 0
KCO2 231850Z 12007KT 30/21 A3005 RMK A01 T03020210  RH  058%=      5-min Rain = 0
KCO2 231851Z 11006KT 30/21 A3005 RMK A01 T03040211  RH  058%=      5-min Rain = 0
KCO2 231852Z 11009KT 31/21 A3005 RMK A01 T03050211  RH  057%=      5-min Rain = 0
KCO2 231853Z 11007KT 31/21 A3005 RMK A01 T03050210  RH  057%=      5-min Rain = 0
KCO2 231854Z 12006KT 31/21 A3005 RMK A01 T03050211  RH  058%=      5-min Rain = 0
KCO2 231855Z 13006KT 31/21 A3005 RMK A01 T03050212  RH  058%=      5-min Rain = 0
KCO2 231856Z 12005KT 31/21 A3005 RMK A01 T03060210  RH  057%=      5-min Rain = 0
KCO2 231857Z 12005KT 31/21 A3005 RMK A01 T03060212  RH  057%=      5-min Rain = 0
KCO2 231858Z 12005KT 31/21 A3005 RMK A01 T03060211  RH  057%=      5-min Rain = 0
KCO2 231859Z 13003KT 31/21 A3005 RMK A01 T03060209  RH  056%=      5-min Rain = 0
KCO2 231900Z 12003KT 31/21 A3005 RMK A01 T03050209  RH  057%=      5-min Rain = 0
KCO2 231901Z 16003KT 31/21 A3005 RMK A01 T03050210  RH  057%=      5-min Rain = 0
KCO2 231902Z 15004KT 31/21 A3005 RMK A01 T03050208  RH  056%=      5-min Rain = 0
KCO2 231903Z 12007KT 31/21 A3005 RMK A01 T03050208  RH  056%=      5-min Rain = 0
KCO2 231904Z 14006KT 31/21 A3004 RMK A01 T03050207  RH  056%=      5-min Rain = 0
KCO2 231905Z 14009KT 31/21 A3004 RMK A01 T03070208  RH  056%=      5-min Rain = 0
KCO2 231906Z 13009KT 31/20 A3004 RMK A01 T03100204  RH  053%=      5-min Rain = 0
KCO2 231907Z 13009KT 31/20 A3005 RMK A01 T03130204  RH  052%=      5-min Rain = 0
KCO2 231908Z 15007KT 31/20 A3005 RMK A01 T03140204  RH  052%=      5-min Rain = 0
KCO2 231909Z 14008KT 31/20 A3004 RMK A01 T03140204  RH  052%=      5-min Rain = 0
KCO2 231910Z 11007KT 31/21 A3004 RMK A01 T03120205  RH  053%=      5-min Rain = 0
KCO2 231911Z 11007KT 31/20 A3004 RMK A01 T03100202  RH  053%=      5-min Rain = 0
KCO2 231912Z 13008KT 31/20 A3004 RMK A01 T03070204  RH  054%=      5-min Rain = 0
KCO2 231913Z 14007KT 31/20 A3004 RMK A01 T03060203  RH  054%=      5-min Rain = 0
KCO2 231914Z 15006KT 31/20 A3004 RMK A01 T03050204  RH  055%=      5-min Rain = 0
KCO2 231915Z 14006KT 31/20 A3004 RMK A01 T03050204  RH  055%=      5-min Rain = 0
KCO2 231916Z 14006KT 30/20 A3004 RMK A01 T03040203  RH  055%=      5-min Rain = 0
KCO2 231917Z 14007KT 30/21 A3004 RMK A01 T03030206  RH  056%=      5-min Rain = 0
KCO2 231918Z 16008KT 30/21 A3004 RMK A01 T03030208  RH  057%=      5-min Rain = 0
KCO2 231919Z 14007KT 30/21 A3004 RMK A01 T03020212  RH  059%=      5-min Rain = 0
KCO2 231920Z 14008KT 30/21 A3004 RMK A01 T03010212  RH  059%=      5-min Rain = 0
KCO2 231921Z 14007KT 30/22 A3004 RMK A01 T02990215  RH  061%=      5-min Rain = 0
KCO2 231922Z 14008KT 30/22 A3004 RMK A01 T02980215  RH  061%=      5-min Rain = 0
KCO2 231923Z 15007KT 30/21 A3004 RMK A01 T02970213  RH  061%=      5-min Rain = 0
KCO2 231924Z 15005KT 30/21 A3004 RMK A01 T02960213  RH  061%=      5-min Rain = 0
KCO2 231925Z 14005KT 30/22 A3003 RMK A01 T02950215  RH  062%=      5-min Rain = 0
KCO2 231926Z 13004KT 30/21 A3003 RMK A01 T02950214  RH  062%=      5-min Rain = 0
KCO2 231927Z 12005KT 29/21 A3003 RMK A01 T02940213  RH  062%=      5-min Rain = 0
KCO2 231928Z 10004KT 30/21 A3003 RMK A01 T02950210  RH  060%=      5-min Rain = 0
KCO2 231929Z 10004KT 30/21 A3003 RMK A01 T02950212  RH  061%=      5-min Rain = 0
KCO2 231930Z 09004KT 30/21 A3003 RMK A01 T02960210  RH  060%=      5-min Rain = 0
KCO2 231931Z 09002KT 30/21 A3003 RMK A01 T02970212  RH  060%=      5-min Rain = 0
KCO2 231932Z 10002KT 30/21 A3003 RMK A01 T02980212  RH  060%=      5-min Rain = 0
KCO2 231933Z 11002KT 30/21 A3003 RMK A01 T02990209  RH  059%=      5-min Rain = 0
KCO2 231934Z 10003KT 30/21 A3003 RMK A01 T02990211  RH  059%=      5-min Rain = 0
KCO2 231935Z 12008KT 30/21 A3003 RMK A01 T03020212  RH  059%=      5-min Rain = 0
KCO2 231936Z 13005KT 31/21 A3003 RMK A01 T03060207  RH  055%=      5-min Rain = 0
KCO2 231937Z 14007KT 31/21 A3003 RMK A01 T03110206  RH  054%=      5-min Rain = 0
KCO2 231938Z 12008KT 31/21 A3002 RMK A01 T03130205  RH  053%=      5-min Rain = 0
KCO2 231939Z 12010KT 31/20 A3002 RMK A01 T03130204  RH  052%=      5-min Rain = 0
KCO2 231940Z 13010KT 31/21 A3002 RMK A01 T03120206  RH  053%=      5-min Rain = 0
KCO2 231941Z 13011KT 31/21 A3002 RMK A01 T03100205  RH  053%=      5-min Rain = 0
KCO2 231942Z 14009KT 31/21 A3002 RMK A01 T03090205  RH  054%=      5-min Rain = 0
KCO2 231943Z 14007KT 31/21 A3002 RMK A01 T03090205  RH  054%=      5-min Rain = 0
KCO2 231944Z 14010KT 31/20 A3002 RMK A01 T03090204  RH  054%=      5-min Rain = 0
KCO2 231945Z 14011KT 31/20 A3002 RMK A01 T03090202  RH  053%=      5-min Rain = 0
KCO2 231946Z 15010KT 31/20 A3002 RMK A01 T03080199  RH  052%=      5-min Rain = 0
KCO2 231947Z 15007KT 31/20 A3002 RMK A01 T03070200  RH  053%=      5-min Rain = 0
KCO2 231948Z 16007KT 31/20 A3002 RMK A01 T03060199  RH  053%=      5-min Rain = 0
KCO2 231949Z 18005KT 31/20 A3002 RMK A01 T03060200  RH  053%=      5-min Rain = 0
KCO2 231950Z 17006KT 31/20 A3002 RMK A01 T03060201  RH  054%=      5-min Rain = 0
KCO2 231951Z 17005KT 31/20 A3002 RMK A01 T03050202  RH  054%=      5-min Rain = 0
KCO2 231952Z 15006KT 31/20 A3002 RMK A01 T03050203  RH  054%=      5-min Rain = 0
KCO2 231953Z 16008KT 31/20 A3003 RMK A01 T03050200  RH  053%=      5-min Rain = 0
KCO2 231954Z 21008KT 31/20 A3003 RMK A01 T03050203  RH  054%=      5-min Rain = 0
KCO2 231955Z 24013KT 31/21 A3003 RMK A01 T03060210  RH  057%=      5-min Rain = 0
KCO2 231956Z 26012KT 30/21 A3003 RMK A01 T02970214  RH  061%=      5-min Rain = 0
KCO2 231957Z 29015KT 29/21 A3003 RMK A01 T02860213  RH  064%=      5-min Rain = 0
KCO2 231958Z 29016KT 28/21 A3003 RMK A01 T02780209  RH  066%=      5-min Rain = 0
KCO2 231959Z 29015KT 27/21 A3003 RMK A01 T02720207  RH  068%=      5-min Rain = 0
KCO2 232000Z 29018G23KT 27/21 A3002 RMK A01 T02680206  RH  069%=      5-min Rain = 0
KCO2 232001Z 30020KT 27/21 A3002 RMK A01 T02650205  RH  069%=      5-min Rain = 0
KCO2 232002Z 30019KT 26/20 A3003 RMK A01 T02630204  RH  070%=      5-min Rain = 0
KCO2 232003Z 30017KT 26/20 A3002 RMK A01 T02620202  RH  070%=      5-min Rain = 0
KCO2 232004Z 31015KT 26/20 A3002 RMK A01 T02620201  RH  069%=      5-min Rain = 0
KCO2 232005Z 32013KT 26/20 A3003 RMK A01 T02630202  RH  069%=      5-min Rain = 0
KCO2 232006Z 32011KT 26/20 A3003 RMK A01 T02630204  RH  070%=      5-min Rain = 0
KCO2 232007Z 31012KT 26/20 A3002 RMK A01 T02620204  RH  070%=      5-min Rain = 0
KCO2 232008Z 32010KT 26/21 A3002 RMK A01 T02620206  RH  071%=      5-min Rain = 0
KCO2 232009Z 31011KT 26/21 A3002 RMK A01 T02620208  RH  072%=      5-min Rain = 0
KCO2 232010Z 32011KT 26/21 A3002 RMK A01 T02640209  RH  072%=      5-min Rain = 0
KCO2 232011Z 33012KT 27/21 A3002 RMK A01 T02650209  RH  072%=      5-min Rain = 0
KCO2 232012Z 32011KT 26/21 A3002 RMK A01 T02640210  RH  072%=      5-min Rain = 0
KCO2 232013Z 32010KT 26/21 A3002 RMK A01 T02630210  RH  073%=      5-min Rain = 0
KCO2 232014Z 33009KT 26/21 A3002 RMK A01 T02630211  RH  073%=      5-min Rain = 0
KCO2 232015Z 32009KT 26/21 A3002 RMK A01 T02640211  RH  072%=      5-min Rain = 0
KCO2 232016Z 33011KT 27/21 A3002 RMK A01 T02670211  RH  071%=      5-min Rain = 0
KCO2 232017Z 34011G16KT 27/21 A3002 RMK A01 T02700210  RH  070%=      5-min Rain = 0
KCO2 232018Z 34011KT 27/21 A3002 RMK A01 T02720210  RH  069%=      5-min Rain = 0
KCO2 232019Z 33012KT 27/21 A3002 RMK A01 T02720208  RH  068%=      5-min Rain = 0
KCO2 232020Z 34009KT 27/21 A3002 RMK A01 T02710208  RH  068%=      5-min Rain = 0
KCO2 232021Z 35008KT 27/21 A3002 RMK A01 T02710209  RH  069%=      5-min Rain = 0
KCO2 232022Z 35010KT 27/21 A3001 RMK A01 T02730209  RH  068%=      5-min Rain = 0
KCO2 232023Z 34011KT 27/21 A3002 RMK A01 T02740209  RH  067%=      5-min Rain = 0
KCO2 232024Z 33012KT 28/21 A3001 RMK A01 T02750209  RH  067%=      5-min Rain = 0
KCO2 232025Z 33011KT 28/21 A3001 RMK A01 T02750209  RH  067%=      5-min Rain = 0
KCO2 232026Z 34010KT 28/21 A3002 RMK A01 T02760210  RH  067%=      5-min Rain = 0
KCO2 232027Z 34011KT 28/21 A3002 RMK A01 T02780210  RH  067%=      5-min Rain = 0
KCO2 232028Z 34010KT 28/21 A3002 RMK A01 T02790208  RH  065%=      5-min Rain = 0
KCO2 232029Z 34008KT 28/21 A3002 RMK A01 T02830210  RH  065%=      5-min Rain = 0
KCO2 232030Z 34010KT 29/21 A3002 RMK A01 T02870210  RH  063%=      5-min Rain = 0
KCO2 232031Z 33013KT 29/21 A3001 RMK A01 T02880207  RH  061%=      5-min Rain = 0
KCO2 232032Z 33012KT 29/21 A3001 RMK A01 T02850205  RH  062%=      5-min Rain = 0
KCO2 232033Z 34012KT 28/21 A3001 RMK A01 T02830206  RH  063%=      5-min Rain = 0
KCO2 232034Z 34009KT 28/21 A3001 RMK A01 T02810206  RH  064%=      5-min Rain = 0
KCO2 232035Z 36012KT 28/21 A3001 RMK A01 T02800207  RH  064%=      5-min Rain = 0
KCO2 232036Z 35012KT 28/21 A3001 RMK A01 T02790205  RH  064%=      5-min Rain = 0
KCO2 232037Z 35009KT 28/21 A3001 RMK A01 T02780207  RH  065%=      5-min Rain = 0
KCO2 232038Z 35009KT 28/21 A3001 RMK A01 T02780207  RH  065%=      5-min Rain = 0
KCO2 232039Z 36008KT 28/21 A3001 RMK A01 T02780207  RH  065%=      5-min Rain = 0
KCO2 232040Z 35009KT 28/21 A3001 RMK A01 T02790206  RH  065%=      5-min Rain = 0
KCO2 232041Z 34009KT 28/21 A3001 RMK A01 T02790206  RH  065%=      5-min Rain = 0
KCO2 232042Z 35007KT 28/21 A3001 RMK A01 T02790206  RH  065%=      5-min Rain = 0
KCO2 232043Z 35009KT 28/21 A30 RMK A01 T02790208  RH  065%=      5-min Rain = 0
KCO2 232044Z 00009KT 28/21 A30 RMK A01 T02800210  RH  066%=      5-min Rain = 0
KCO2 232045Z 36009KT 28/21 A30 RMK A01 T02790211  RH  067%=      5-min Rain = 0
KCO2 232046Z 35009KT 28/21 A30 RMK A01 T02780212  RH  067%=      5-min Rain = 0
KCO2 232047Z 36008KT 28/21 A30 RMK A01 T02780213  RH  068%=      5-min Rain = 0
KCO2 232048Z 36009KT 28/21 A30 RMK A01 T02770214  RH  069%=      5-min Rain = 0
KCO2 232049Z 00009KT 28/22 A30 RMK A01 T02770215  RH  069%=      5-min Rain = 0
KCO2 232050Z 01010KT 28/22 A30 RMK A01 T02760216  RH  070%=      5-min Rain = 0
KCO2 232051Z 00010KT 28/22 A30 RMK A01 T02760216  RH  070%=      5-min Rain = 0
KCO2 232052Z 01009KT 28/22 A30 RMK A01 T02760216  RH  070%=      5-min Rain = 0
KCO2 232053Z 01007KT 28/22 A30 RMK A01 T02750216  RH  070%=      5-min Rain = 0
KCO2 232054Z 01008KT 28/22 A2999 RMK A01 T02750218  RH  071%=      5-min Rain = 0
KCO2 232055Z 01009KT 28/22 A2999 RMK A01 T02750218  RH  071%=      5-min Rain = 0
KCO2 232056Z 01009KT 27/22 A2999 RMK A01 T02740217  RH  071%=      5-min Rain = 0
KCO2 232057Z 02009KT 27/22 A2999 RMK A01 T02740216  RH  071%=      5-min Rain = 0
KCO2 232058Z 02007KT 27/22 A2999 RMK A01 T02740215  RH  070%=      5-min Rain = 0
KCO2 232059Z 02006KT 27/22 A2999 RMK A01 T02740216  RH  071%=      5-min Rain = 0
KCO2 232100Z 03007KT 27/22 A2999 RMK A01 T02740216  RH  070%=      5-min Rain = 0
KCO2 232101Z 02006KT 28/22 A2999 RMK A01 T02750216  RH  070%=      5-min Rain = 0
KCO2 232102Z 02006KT 28/22 A2999 RMK A01 T02750216  RH  070%=      5-min Rain = 0
KCO2 232103Z 02006KT 28/22 A2999 RMK A01 T02750216  RH  070%=      5-min Rain = 0
KCO2 232104Z 02005KT 28/22 A2999 RMK A01 T02760217  RH  070%=      5-min Rain = 0
KCO2 232105Z 02005KT 28/22 A2999 RMK A01 T02760217  RH  070%=      5-min Rain = 0
KCO2 232106Z 02005KT 28/22 A2999 RMK A01 T02770216  RH  070%=      5-min Rain = 0
KCO2 232107Z 01005KT 28/22 A2999 RMK A01 T02770217  RH  070%=      5-min Rain = 0
KCO2 232108Z 01004KT 28/22 A2999 RMK A01 T02770218  RH  070%=      5-min Rain = 0
KCO2 232109Z 00004KT 28/22 A2999 RMK A01 T02770216  RH  069%=      5-min Rain = 0
KCO2 232110Z 35003KT 28/22 A30 RMK A01 T02770218  RH  070%=      5-min Rain = 0
KCO2 232111Z 34002KT 28/22 A30 RMK A01 T02780219  RH  070%=      5-min Rain = 0
KCO2 232112Z 34002KT 28/22 A30 RMK A01 T02780218  RH  070%=      5-min Rain = 0
KCO2 232113Z 33002KT 28/22 A30 RMK A01 T02790218  RH  069%=      5-min Rain = 0
KCO2 232114Z 33002KT 28/22 A30 RMK A01 T02790217  RH  069%=      5-min Rain = 0
KCO2 232115Z 32001KT 28/22 A30 RMK A01 T02790217  RH  069%=      5-min Rain = 0
KCO2 232116Z 32002KT 28/22 A30 RMK A01 T02800219  RH  069%=      5-min Rain = 0
KCO2 232117Z 33001KT 28/22 A30 RMK A01 T02800218  RH  069%=      5-min Rain = 0
KCO2 232118Z 32001KT 28/22 A30 RMK A01 T02800218  RH  069%=      5-min Rain = 0
KCO2 232119Z 32000KT 28/22 A30 RMK A01 T02810217  RH  068%=      5-min Rain = 0
KCO2 232120Z 18000KT 28/22 A30 RMK A01 T02810215  RH  067%=      5-min Rain = 0
KCO2 232121Z 18003KT 28/22 A30 RMK A01 T02810216  RH  068%=      5-min Rain = 0
KCO2 232122Z 17007KT 28/22 A3001 RMK A01 T02820219  RH  069%=      5-min Rain = 0
KCO2 232123Z 15012KT 28/22 A3001 RMK A01 T02810221  RH  070%=      5-min Rain = 0
KCO2 232124Z 13011KT 28/21 A3001 RMK A01 T02750213  RH  069%=      5-min Rain = 0
KCO2 232125Z 14006KT 27/21 A3001 RMK A01 T02680211  RH  071%=      5-min Rain = 0.03
KCO2 232126Z 18002KT 26/21 A3001 RMK A01 T02610212  RH  074%=      5-min Rain = 0
KCO2 232127Z 22004KT 26/20 A3002 RMK A01 T02570202  RH  072%=      5-min Rain = 0.01
KCO2 232128Z 21007KT 26/21 A3002 RMK A01 T02580214  RH  077%=      5-min Rain = 0
KCO2 232129Z 25009KT 25/22 A3002 RMK A01 T02540218  RH  080%=      5-min Rain = 0.01
KCO2 232130Z 25011KT 25/22 A3001 RMK A01 T02510218  RH  082%=      5-min Rain = 0
KCO2 232131Z 23013KT 25/22 A3001 RMK A01 T02480219  RH  084%=      5-min Rain = 0
KCO2 232132Z 22014KT 24/22 A3001 RMK A01 T02440218  RH  085%=      5-min Rain = 0
KCO2 232133Z 22014KT 24/22 A3001 RMK A01 T02420217  RH  086%=      5-min Rain = 0.01
KCO2 232134Z 21009KT 24/22 A3001 RMK A01 T02400215  RH  086%=      5-min Rain = 0
KCO2 232135Z 23007KT 24/21 A3001 RMK A01 T02420209  RH  082%=      5-min Rain = 0
KCO2 232136Z 23007KT 24/21 A3001 RMK A01 T02440214  RH  083%=      5-min Rain = 0.01
KCO2 232137Z 25004KT 24/21 A3001 RMK A01 T02430214  RH  084%=      5-min Rain = 0
KCO2 232138Z 27003KT 24/22 A30 RMK A01 T02430217  RH  085%=      5-min Rain = 0.01
KCO2 232139Z 27002KT 24/22 A30 RMK A01 T02420218  RH  087%=      5-min Rain = 0.01
KCO2 232140Z 24001KT 24/22 A30 RMK A01 T02410220  RH  088%=      5-min Rain = 0
KCO2 232141Z 09000KT 24/22 A30 RMK A01 T02400221  RH  089%=      5-min Rain = 0
KCO2 232142Z 14002KT 24/22 A30 RMK A01 T02390220  RH  089%=      5-min Rain = 0.01
KCO2 232143Z 23004KT 24/22 A30 RMK A01 T02390222  RH  090%=      5-min Rain = 0
KCO2 232144Z 23006KT 24/22 A30 RMK A01 T02380221  RH  090%=      5-min Rain = 0
KCO2 232145Z 23005KT 24/22 A30 RMK A01 T02380221  RH  091%=      5-min Rain = 0.01
KCO2 232146Z 24005KT 24/22 A30 RMK A01 T02370222  RH  091%=      5-min Rain = 0
KCO2 232147Z 26004KT 24/22 A30 RMK A01 T02370222  RH  091%=      5-min Rain = 0
KCO2 232148Z 27003KT 24/22 A30 RMK A01 T02370222  RH  091%=      5-min Rain = 0
KCO2 232149Z 30003KT 24/22 A30 RMK A01 T02370223  RH  092%=      5-min Rain = 0
KCO2 232150Z 31004KT 24/22 A2999 RMK A01 T02360223  RH  092%=      5-min Rain = 0
KCO2 232151Z 33004KT 24/22 A2999 RMK A01 T02360224  RH  093%=      5-min Rain = 0.01
KCO2 232152Z 33004KT 24/22 A2999 RMK A01 T02360224  RH  093%=      5-min Rain = 0
KCO2 232153Z 33005KT 24/22 A2999 RMK A01 T02360224  RH  093%=      5-min Rain = 0
KCO2 232154Z 33004KT 24/22 A2999 RMK A01 T02360224  RH  093%=      5-min Rain = 0
KCO2 232155Z 33004KT 24/22 A2999 RMK A01 T02360224  RH  093%=      5-min Rain = 0
KCO2 232156Z 33005KT 24/23 A2999 RMK A01 T02360225  RH  093%=      5-min Rain = 0
KCO2 232157Z 33005KT 24/23 A2999 RMK A01 T02360225  RH  094%=      5-min Rain = 0
KCO2 232158Z 33004KT 24/23 A2999 RMK A01 T02360225  RH  094%=      5-min Rain = 0
KCO2 232159Z 33004KT 24/23 A2999 RMK A01 T02360226  RH  094%=      5-min Rain = 0
KCO2 232200Z 32004KT 24/23 A2999 RMK A01 T02360226  RH  094%=      5-min Rain = 0
KCO2 232201Z 31004KT 24/23 A2999 RMK A01 T02360226  RH  094%=      5-min Rain = 0
KCO2 232202Z 29004KT 24/23 A2999 RMK A01 T02360226  RH  094%=      5-min Rain = 0.01
KCO2 232203Z 29004KT 24/23 A2999 RMK A01 T02360227  RH  094%=      5-min Rain = 0
KCO2 232204Z 29004KT 24/23 A2999 RMK A01 T02370227  RH  095%=      5-min Rain = 0
KCO2 232205Z 29004KT 24/23 A2999 RMK A01 T02370228  RH  095%=      5-min Rain = 0
KCO2 232206Z 28004KT 24/23 A2999 RMK A01 T02370228  RH  095%=      5-min Rain = 0
KCO2 232207Z 27005KT 24/23 A2999 RMK A01 T02370228  RH  095%=      5-min Rain = 0
KCO2 232208Z 27005KT 24/23 A2998 RMK A01 T02370228  RH  095%=      5-min Rain = 0
KCO2 232209Z 28005KT 24/23 A2998 RMK A01 T02370228  RH  095%=      5-min Rain = 0
KCO2 232210Z 29005KT 24/23 A2998 RMK A01 T02370229  RH  095%=      5-min Rain = 0.01
KCO2 232211Z 29004KT 24/23 A2998 RMK A01 T02370228  RH  095%=      5-min Rain = 0
KCO2 232212Z 29005KT 24/23 A2998 RMK A01 T02370228  RH  095%=      5-min Rain = 0
KCO2 232213Z 28004KT 24/23 A2998 RMK A01 T02370228  RH  095%=      5-min Rain = 0.01
KCO2 232214Z 29004KT 24/23 A2998 RMK A01 T02370228  RH  095%=      5-min Rain = 0
KCO2 232215Z 29004KT 24/23 A2998 RMK A01 T02370228  RH  095%=      5-min Rain = 0
KCO2 232216Z 29004KT 24/23 A2998 RMK A01 T02370228  RH  095%=      5-min Rain = 0
KCO2 232217Z 30004KT 24/23 A2998 RMK A01 T02370229  RH  095%=      5-min Rain = 0
KCO2 232218Z 30005KT 24/23 A2998 RMK A01 T02370228  RH  095%=      5-min Rain = 0.01
KCO2 232219Z 30005KT 24/23 A2998 RMK A01 T02370228  RH  095%=      5-min Rain = 0
KCO2 232220Z 30005KT 24/23 A2998 RMK A01 T02370229  RH  095%=      5-min Rain = 0
KCO2 232221Z 29004KT 24/23 A2998 RMK A01 T02380229  RH  095%=      5-min Rain = 0
KCO2 232222Z 29004KT 24/23 A2998 RMK A01 T02380229  RH  095%=      5-min Rain = 0
KCO2 232223Z 29003KT 24/23 A2999 RMK A01 T02380229  RH  095%=      5-min Rain = 0
KCO2 232224Z 29003KT 24/23 A2999 RMK A01 T02390229  RH  095%=      5-min Rain = 0
KCO2 232225Z 29003KT 24/23 A2999 RMK A01 T02380228  RH  094%=      5-min Rain = 0
KCO2 232226Z 29002KT 24/23 A2999 RMK A01 T02390229  RH  094%=      5-min Rain = 0
KCO2 232227Z 30002KT 24/23 A2999 RMK A01 T02400231  RH  094%=      5-min Rain = 0
KCO2 232228Z 31002KT 24/23 A2999 RMK A01 T02410230  RH  094%=      5-min Rain = 0
KCO2 232229Z 32002KT 24/23 A2999 RMK A01 T02410231  RH  094%=      5-min Rain = 0
KCO2 232230Z 32002KT 24/23 A2999 RMK A01 T02420232  RH  094%=      5-min Rain = 0
KCO2 232231Z 31002KT 24/23 A2999 RMK A01 T02440233  RH  094%=      5-min Rain = 0
KCO2 232232Z 27001KT 24/23 A30 RMK A01 T02440233  RH  093%=      5-min Rain = 0
KCO2 232233Z 24002KT 25/23 A30 RMK A01 T02450234  RH  093%=      5-min Rain = 0
KCO2 232234Z 22003KT 25/23 A30 RMK A01 T02450231  RH  092%=      5-min Rain = 0
KCO2 232235Z 19006KT 25/23 A30 RMK A01 T02460234  RH  093%=      5-min Rain = 0
KCO2 232236Z 18009KT 25/24 A3001 RMK A01 T02480237  RH  094%=      5-min Rain = 0
KCO2 232237Z 17009KT 25/24 A3001 RMK A01 T02490237  RH  093%=      5-min Rain = 0
KCO2 232238Z 18007KT 25/24 A3001 RMK A01 T02490236  RH  093%=      5-min Rain = 0
KCO2 232239Z 18007KT 25/23 A3001 RMK A01 T02480234  RH  092%=      5-min Rain = 0
KCO2 232240Z 16009KT 25/23 A3001 RMK A01 T02470233  RH  092%=      5-min Rain = 0.01
KCO2 232241Z 15013G19KT 25/23 A30 RMK A01 T02460226  RH  089%=      5-min Rain = 0
KCO2 232242Z 14010KT 24/22 A30 RMK A01 T02440222  RH  088%=      5-min Rain = 0.01
KCO2 232243Z 13013KT 24/22 A30 RMK A01 T02410218  RH  087%=      5-min Rain = 0
KCO2 232244Z 11013KT 24/21 A30 RMK A01 T02380211  RH  085%=      5-min Rain = 0.01
KCO2 232245Z 09014KT 24/21 A30 RMK A01 T02360209  RH  084%=      5-min Rain = 0
KCO2 232246Z 09014KT 24/21 A2999 RMK A01 T02360208  RH  084%=      5-min Rain = 0.01
KCO2 232247Z 09012KT 24/21 A2999 RMK A01 T02350207  RH  084%=      5-min Rain = 0
KCO2 232248Z 10010KT 23/21 A2999 RMK A01 T02340208  RH  086%=      5-min Rain = 0
KCO2 232249Z 09010KT 23/21 A2999 RMK A01 T02330209  RH  086%=      5-min Rain = 0
KCO2 232250Z 10008KT 23/21 A2999 RMK A01 T02320209  RH  087%=      5-min Rain = 0
KCO2 232251Z 10007KT 23/21 A2999 RMK A01 T02320207  RH  086%=      5-min Rain = 0
KCO2 232252Z 10007KT 23/21 A2999 RMK A01 T02320207  RH  086%=      5-min Rain = 0
KCO2 232253Z 11006KT 23/21 A2999 RMK A01 T02340207  RH  085%=      5-min Rain = 0
KCO2 232254Z 12006KT 23/21 A2999 RMK A01 T02340205  RH  083%=      5-min Rain = 0
KCO2 232255Z 11005KT 24/21 A2999 RMK A01 T02350207  RH  084%=      5-min Rain = 0
KCO2 232256Z 08006KT 24/21 A2999 RMK A01 T02360211  RH  086%=      5-min Rain = 0
KCO2 232257Z 07007KT 24/21 A2999 RMK A01 T02360213  RH  087%=      5-min Rain = 0
KCO2 232258Z 07009KT 24/21 A2999 RMK A01 T02360211  RH  086%=      5-min Rain = 0
KCO2 232259Z 07009KT 24/21 A2999 RMK A01 T02370213  RH  086%=      5-min Rain = 0
KCO2 232300Z 07009KT 24/21 A2998 RMK A01 T02380213  RH  086%=      5-min Rain = 0
KCO2 232301Z 07008KT 24/21 A2998 RMK A01 T02380212  RH  085%=      5-min Rain = 0
KCO2 232302Z 06007KT 24/22 A2998 RMK A01 T02390216  RH  087%=      5-min Rain = 0
KCO2 232303Z 06008KT 24/22 A2998 RMK A01 T02400216  RH  087%=      5-min Rain = 0
KCO2 232304Z 06008KT 24/22 A2998 RMK A01 T02400215  RH  086%=      5-min Rain = 0
KCO2 232305Z 06008KT 24/22 A2998 RMK A01 T02410216  RH  086%=      5-min Rain = 0
KCO2 232306Z 06008KT 24/22 A2998 RMK A01 T02410217  RH  086%=      5-min Rain = 0
KCO2 232307Z 06008KT 24/22 A2998 RMK A01 T02410216  RH  086%=      5-min Rain = 0
KCO2 232308Z 06008KT 24/22 A2998 RMK A01 T02420215  RH  085%=      5-min Rain = 0
KCO2 232309Z 06008KT 24/22 A2998 RMK A01 T02430217  RH  086%=      5-min Rain = 0
KCO2 232310Z 06008KT 24/22 A2998 RMK A01 T02430216  RH  085%=      5-min Rain = 0
KCO2 232311Z 06007KT 24/22 A2998 RMK A01 T02430216  RH  084%=      5-min Rain = 0
KCO2 232312Z 05007KT 24/22 A2998 RMK A01 T02440217  RH  085%=      5-min Rain = 0
KCO2 232313Z 05007KT 24/22 A2998 RMK A01 T02440216  RH  084%=      5-min Rain = 0
KCO2 232314Z 05007KT 25/22 A2998 RMK A01 T02450215  RH  084%=      5-min Rain = 0
KCO2 232315Z 05007KT 24/21 A2998 RMK A01 T02440214  RH  083%=      5-min Rain = 0
KCO2 232316Z 05006KT 24/21 A2998 RMK A01 T02440213  RH  083%=      5-min Rain = 0
KCO2 232317Z 04006KT 24/21 A2998 RMK A01 T02440214  RH  083%=      5-min Rain = 0
KCO2 232318Z 05006KT 24/22 A2998 RMK A01 T02440215  RH  084%=      5-min Rain = 0
KCO2 232319Z 04006KT 24/22 A2998 RMK A01 T02440216  RH  084%=      5-min Rain = 0
KCO2 232320Z 05006KT 24/22 A2998 RMK A01 T02440216  RH  084%=      5-min Rain = 0
KCO2 232321Z 05005KT 24/22 A2998 RMK A01 T02440217  RH  085%=      5-min Rain = 0
KCO2 232322Z 05006KT 24/22 A2998 RMK A01 T02440217  RH  085%=      5-min Rain = 0
KCO2 232323Z 05006KT 24/22 A2998 RMK A01 T02440217  RH  085%=      5-min Rain = 0
KCO2 232324Z 05007KT 24/22 A2997 RMK A01 T02440218  RH  085%=      5-min Rain = 0
KCO2 232325Z 05007KT 24/22 A2997 RMK A01 T02440217  RH  085%=      5-min Rain = 0
KCO2 232326Z 05007KT 25/22 A2997 RMK A01 T02450218  RH  085%=      5-min Rain = 0
KCO2 232327Z 05007KT 25/22 A2997 RMK A01 T02450217  RH  084%=      5-min Rain = 0
KCO2 232328Z 05007KT 25/22 A2997 RMK A01 T02450218  RH  085%=      5-min Rain = 0
KCO2 232329Z 05007KT 25/22 A2997 RMK A01 T02460218  RH  085%=      5-min Rain = 0
KCO2 232330Z 05007KT 25/22 A2997 RMK A01 T02460219  RH  085%=      5-min Rain = 0
KCO2 232331Z 04007KT 25/22 A2997 RMK A01 T02460219  RH  085%=      5-min Rain = 0
KCO2 232332Z 05006KT 25/22 A2997 RMK A01 T02460220  RH  085%=      5-min Rain = 0
KCO2 232333Z 05006KT 25/22 A2997 RMK A01 T02460220  RH  085%=      5-min Rain = 0
KCO2 232334Z 05006KT 25/22 A2997 RMK A01 T02460219  RH  085%=      5-min Rain = 0
KCO2 232335Z 05006KT 25/22 A2997 RMK A01 T02470219  RH  085%=      5-min Rain = 0
KCO2 232336Z 05005KT 25/22 A2997 RMK A01 T02470220  RH  085%=      5-min Rain = 0
KCO2 232337Z 05005KT 25/22 A2997 RMK A01 T02470221  RH  085%=      5-min Rain = 0
KCO2 232338Z 05005KT 25/22 A2997 RMK A01 T02470221  RH  086%=      5-min Rain = 0
KCO2 232339Z 05005KT 25/22 A2997 RMK A01 T02470221  RH  085%=      5-min Rain = 0
KCO2 232340Z 05005KT 25/22 A2997 RMK A01 T02480223  RH  086%=      5-min Rain = 0
KCO2 232341Z 05005KT 25/22 A2997 RMK A01 T02480223  RH  086%=      5-min Rain = 0
KCO2 232342Z 05005KT 25/22 A2998 RMK A01 T02480224  RH  086%=      5-min Rain = 0
KCO2 232343Z 06005KT 25/22 A2998 RMK A01 T02480223  RH  086%=      5-min Rain = 0
KCO2 232344Z 06004KT 25/22 A2998 RMK A01 T02480223  RH  086%=      5-min Rain = 0
KCO2 232345Z 07004KT 25/22 A2998 RMK A01 T02480222  RH  086%=      5-min Rain = 0
KCO2 232346Z 07004KT 25/22 A2998 RMK A01 T02480222  RH  085%=      5-min Rain = 0
KCO2 232347Z 07004KT 25/22 A2998 RMK A01 T02480223  RH  086%=      5-min Rain = 0
KCO2 232348Z 08004KT 25/22 A2998 RMK A01 T02490222  RH  085%=      5-min Rain = 0
KCO2 232349Z 08004KT 25/22 A2998 RMK A01 T02490222  RH  085%=      5-min Rain = 0
KCO2 232350Z 08005KT 25/22 A2998 RMK A01 T02490220  RH  084%=      5-min Rain = 0
KCO2 232351Z 07004KT 25/22 A2998 RMK A01 T02500221  RH  084%=      5-min Rain = 0
KCO2 232352Z 07004KT 25/22 A2998 RMK A01 T02500220  RH  083%=      5-min Rain = 0
KCO2 232353Z 07004KT 25/22 A2998 RMK A01 T02510220  RH  083%=      5-min Rain = 0
KCO2 232354Z 08004KT 25/22 A2998 RMK A01 T02510221  RH  083%=      5-min Rain = 0
KCO2 232355Z 08004KT 25/22 A2998 RMK A01 T02510223  RH  084%=      5-min Rain = 0
KCO2 232356Z 08004KT 25/22 A2998 RMK A01 T02510224  RH  085%=      5-min Rain = 0
KCO2 232357Z 07004KT 25/22 A2998 RMK A01 T02510224  RH  085%=      5-min Rain = 0
KCO2 232358Z 07004KT 25/22 A2998 RMK A01 T02510224  RH  085%=      5-min Rain = 0
KCO2 232359Z 07003KT 25/22 A2998 RMK A01 T02500224  RH  086%=      5-min Rain = 0
KCO2 240000Z 08003KT 25/23 A2998 RMK A01 T02500225  RH  086%=      5-min Rain = 0
KCO2 240001Z 08003KT 25/23 A2998 RMK A01 T02500226  RH  086%=      5-min Rain = 0
KCO2 240002Z 06003KT 25/23 A2998 RMK A01 T02500226  RH  086%=      5-min Rain = 0
KCO2 240003Z 06003KT 25/23 A2998 RMK A01 T02500226  RH  087%=      5-min Rain = 0
KCO2 240004Z 05002KT 25/23 A2998 RMK A01 T02500227  RH  087%=      5-min Rain = 0
KCO2 240005Z 04002KT 25/23 A2997 RMK A01 T02490228  RH  088%=      5-min Rain = 0
KCO2 240006Z 02002KT 25/23 A2997 RMK A01 T02480228  RH  089%=      5-min Rain = 0
KCO2 240007Z 35002KT 25/23 A2997 RMK A01 T02480229  RH  089%=      5-min Rain = 0
KCO2 240008Z 34003KT 25/23 A2997 RMK A01 T02470229  RH  090%=      5-min Rain = 0
KCO2 240009Z 34003KT 25/23 A2997 RMK A01 T02460229  RH  090%=      5-min Rain = 0
KCO2 240010Z 35003KT 25/23 A2997 RMK A01 T02460229  RH  090%=      5-min Rain = 0
KCO2 240011Z 35003KT 25/23 A2997 RMK A01 T02450229  RH  091%=      5-min Rain = 0
KCO2 240012Z 35003KT 25/23 A2997 RMK A01 T02450228  RH  090%=      5-min Rain = 0
KCO2 240013Z 36003KT 24/23 A2997 RMK A01 T02440228  RH  090%=      5-min Rain = 0
KCO2 240014Z 35003KT 24/23 A2997 RMK A01 T02440228  RH  090%=      5-min Rain = 0
KCO2 240015Z 36003KT 24/23 A2997 RMK A01 T02440227  RH  090%=      5-min Rain = 0
KCO2 240016Z 01004KT 24/22 A2997 RMK A01 T02440224  RH  088%=      5-min Rain = 0
KCO2 240017Z 02004KT 24/22 A2997 RMK A01 T02440220  RH  087%=      5-min Rain = 0
KCO2 240018Z 03004KT 25/22 A2997 RMK A01 T02460221  RH  086%=      5-min Rain = 0
KCO2 240019Z 03004KT 25/22 A2997 RMK A01 T02470221  RH  085%=      5-min Rain = 0
KCO2 240020Z 04004KT 25/22 A2997 RMK A01 T02470221  RH  085%=      5-min Rain = 0
KCO2 240021Z 04004KT 25/22 A2997 RMK A01 T02480221  RH  085%=      5-min Rain = 0
KCO2 240022Z 04004KT 25/22 A2997 RMK A01 T02480222  RH  085%=      5-min Rain = 0
KCO2 240023Z 05004KT 25/22 A2997 RMK A01 T02490221  RH  085%=      5-min Rain = 0
KCO2 240024Z 05004KT 25/22 A2997 RMK A01 T02490222  RH  085%=      5-min Rain = 0
KCO2 240025Z 04004KT 25/22 A2997 RMK A01 T02490223  RH  086%=      5-min Rain = 0
KCO2 240026Z 04004KT 25/22 A2997 RMK A01 T02490224  RH  086%=      5-min Rain = 0
KCO2 240027Z 05004KT 25/22 A2997 RMK A01 T02480223  RH  086%=      5-min Rain = 0
KCO2 240028Z 05004KT 25/22 A2997 RMK A01 T02490223  RH  086%=      5-min Rain = 0
KCO2 240029Z 05004KT 25/22 A2997 RMK A01 T02480223  RH  086%=      5-min Rain = 0
KCO2 240030Z 05003KT 25/22 A2997 RMK A01 T02480223  RH  086%=      5-min Rain = 0
KCO2 240031Z 04004KT 25/22 A2997 RMK A01 T02490223  RH  086%=      5-min Rain = 0
KCO2 240032Z 04004KT 25/22 A2998 RMK A01 T02490224  RH  086%=      5-min Rain = 0
KCO2 240033Z 04004KT 25/22 A2998 RMK A01 T02480224  RH  087%=      5-min Rain = 0
KCO2 240034Z 05004KT 25/23 A2998 RMK A01 T02470225  RH  087%=      5-min Rain = 0
KCO2 240035Z 05004KT 25/23 A2998 RMK A01 T02480226  RH  088%=      5-min Rain = 0
KCO2 240036Z 05004KT 25/23 A2998 RMK A01 T02470225  RH  088%=      5-min Rain = 0
KCO2 240037Z 05004KT 25/23 A2998 RMK A01 T02470225  RH  088%=      5-min Rain = 0
KCO2 240038Z 06003KT 25/23 A2998 RMK A01 T02460225  RH  088%=      5-min Rain = 0
KCO2 240039Z 06003KT 25/23 A2998 RMK A01 T02460225  RH  088%=      5-min Rain = 0
KCO2 240040Z 06003KT 25/23 A2998 RMK A01 T02460225  RH  088%=      5-min Rain = 0
KCO2 240041Z 06002KT 25/23 A2998 RMK A01 T02460225  RH  088%=      5-min Rain = 0
KCO2 240042Z 07001KT 25/23 A2998 RMK A01 T02460226  RH  089%=      5-min Rain = 0
KCO2 240043Z 20000KT 25/23 A2998 RMK A01 T02450227  RH  089%=      5-min Rain = 0
KCO2 240044Z 23002KT 24/23 A2998 RMK A01 T02440226  RH  090%=      5-min Rain = 0
KCO2 240045Z 22002KT 24/23 A2998 RMK A01 T02430227  RH  091%=      5-min Rain = 0
KCO2 240046Z 22001KT 24/23 A2998 RMK A01 T02420227  RH  091%=      5-min Rain = 0
KCO2 240047Z 22002KT 24/23 A2998 RMK A01 T02420226  RH  091%=      5-min Rain = 0
KCO2 240048Z 24001KT 24/23 A2998 RMK A01 T02410226  RH  091%=      5-min Rain = 0
KCO2 240049Z 00000KT 24/22 A2998 RMK A01 T02410224  RH  090%=      5-min Rain = 0
KCO2 240050Z 00000KT 24/22 A2998 RMK A01 T02410223  RH  089%=      5-min Rain = 0
KCO2 240051Z 00000KT 24/22 A2998 RMK A01 T02420222  RH  089%=      5-min Rain = 0
KCO2 240052Z 03000KT 24/22 A2998 RMK A01 T02430222  RH  088%=      5-min Rain = 0
KCO2 240053Z 04001KT 24/22 A2998 RMK A01 T02430222  RH  088%=      5-min Rain = 0
KCO2 240054Z 04001KT 24/22 A2998 RMK A01 T02440222  RH  088%=      5-min Rain = 0
KCO2 240055Z 05001KT 24/22 A2998 RMK A01 T02440221  RH  087%=      5-min Rain = 0
KCO2 240056Z 07001KT 24/22 A2998 RMK A01 T02440220  RH  086%=      5-min Rain = 0
KCO2 240057Z 08001KT 25/22 A2998 RMK A01 T02450220  RH  086%=      5-min Rain = 0
KCO2 240058Z 07002KT 25/22 A2998 RMK A01 T02460222  RH  087%=      5-min Rain = 0
KCO2 240059Z 08002KT 25/22 A2998 RMK A01 T02460220  RH  085%=      5-min Rain = 0
KCO2 240100Z 07002KT 25/22 A2998 RMK A01 T02480219  RH  084%=      5-min Rain = 0
KCO2 240101Z 08002KT 25/22 A2998 RMK A01 T02490219  RH  083%=      5-min Rain = 0
KCO2 240102Z 07001KT 25/22 A2998 RMK A01 T02500219  RH  083%=      5-min Rain = 0
KCO2 240103Z 06002KT 25/22 A2998 RMK A01 T02510220  RH  083%=      5-min Rain = 0
KCO2 240104Z 08001KT 25/22 A2998 RMK A01 T02510221  RH  083%=      5-min Rain = 0
KCO2 240105Z 12001KT 25/22 A2998 RMK A01 T02510222  RH  084%=      5-min Rain = 0
KCO2 240106Z 11002KT 25/22 A2998 RMK A01 T02510224  RH  085%=      5-min Rain = 0
KCO2 240107Z 12002KT 25/23 A2998 RMK A01 T02500226  RH  086%=      5-min Rain = 0
KCO2 240108Z 12002KT 25/23 A2998 RMK A01 T02480225  RH  087%=      5-min Rain = 0
KCO2 240109Z 11004KT 25/23 A2998 RMK A01 T02470225  RH  087%=      5-min Rain = 0
KCO2 240110Z 10005KT 25/22 A2998 RMK A01 T02460224  RH  087%=      5-min Rain = 0
KCO2 240111Z 10005KT 25/22 A2999 RMK A01 T02450223  RH  088%=      5-min Rain = 0
KCO2 240112Z 11005KT 25/22 A2999 RMK A01 T02450224  RH  088%=      5-min Rain = 0
KCO2 240113Z 11006KT 25/22 A2999 RMK A01 T02450224  RH  088%=      5-min Rain = 0
KCO2 240114Z 12006KT 24/22 A2999 RMK A01 T02440224  RH  088%=      5-min Rain = 0
KCO2 240115Z 12006KT 24/22 A2999 RMK A01 T02440224  RH  089%=      5-min Rain = 0
KCO2 240116Z 12005KT 24/23 A2999 RMK A01 T02440225  RH  089%=      5-min Rain = 0
KCO2 240117Z 13005KT 24/23 A2999 RMK A01 T02440225  RH  089%=      5-min Rain = 0
KCO2 240118Z 15005KT 24/23 A2999 RMK A01 T02440226  RH  090%=      5-min Rain = 0
KCO2 240119Z 15005KT 24/23 A2999 RMK A01 T02430227  RH  090%=      5-min Rain = 0
KCO2 240120Z 14004KT 24/23 A2999 RMK A01 T02430227  RH  091%=      5-min Rain = 0
KCO2 240121Z 14004KT 24/23 A2999 RMK A01 T02430227  RH  091%=      5-min Rain = 0
KCO2 240122Z 14004KT 24/23 A30 RMK A01 T02420228  RH  091%=      5-min Rain = 0
KCO2 240123Z 15004KT 24/23 A30 RMK A01 T02430228  RH  092%=      5-min Rain = 0
KCO2 240124Z 14004KT 24/23 A30 RMK A01 T02430229  RH  092%=      5-min Rain = 0
KCO2 240125Z 14004KT 24/23 A30 RMK A01 T02420229  RH  092%=      5-min Rain = 0
KCO2 240126Z 13004KT 24/23 A30 RMK A01 T02420228  RH  092%=      5-min Rain = 0
KCO2 240127Z 13005KT 24/23 A30 RMK A01 T02420229  RH  092%=      5-min Rain = 0
KCO2 240128Z 12006KT 24/23 A30 RMK A01 T02420229  RH  092%=      5-min Rain = 0
KCO2 240129Z 12005KT 24/23 A30 RMK A01 T02410229  RH  093%=      5-min Rain = 0
KCO2 240130Z 12005KT 24/23 A30 RMK A01 T02410229  RH  093%=      5-min Rain = 0
KCO2 240131Z 12005KT 24/23 A30 RMK A01 T02420230  RH  093%=      5-min Rain = 0
KCO2 240132Z 11006KT 24/23 A30 RMK A01 T02420229  RH  093%=      5-min Rain = 0.01
KCO2 240133Z 11006KT 24/23 A30 RMK A01 T02420230  RH  093%=      5-min Rain = 0
KCO2 240134Z 10006KT 24/23 A30 RMK A01 T02420230  RH  093%=      5-min Rain = 0
KCO2 240135Z 10005KT 24/23 A30 RMK A01 T02420230  RH  093%=      5-min Rain = 0
KCO2 240136Z 10005KT 24/23 A30 RMK A01 T02420230  RH  093%=      5-min Rain = 0
KCO2 240137Z 10005KT 24/23 A30 RMK A01 T02420230  RH  093%=      5-min Rain = 0
KCO2 240138Z 11005KT 24/23 A30 RMK A01 T02420230  RH  093%=      5-min Rain = 0
KCO2 240139Z 11005KT 24/23 A30 RMK A01 T02420229  RH  092%=      5-min Rain = 0
KCO2 240140Z 11005KT 24/23 A30 RMK A01 T02420229  RH  092%=      5-min Rain = 0
KCO2 240141Z 12004KT 24/23 A30 RMK A01 T02420229  RH  092%=      5-min Rain = 0
KCO2 240142Z 13005KT 24/23 A30 RMK A01 T02430229  RH  092%=      5-min Rain = 0
KCO2 240143Z 13005KT 24/23 A30 RMK A01 T02430229  RH  092%=      5-min Rain = 0
KCO2 240144Z 14005KT 24/23 A30 RMK A01 T02420230  RH  093%=      5-min Rain = 0
KCO2 240145Z 14005KT 24/23 A3001 RMK A01 T02420230  RH  093%=      5-min Rain = 0
KCO2 240146Z 15005KT 24/23 A3001 RMK A01 T02420230  RH  093%=      5-min Rain = 0
KCO2 240147Z 15005KT 24/23 A3001 RMK A01 T02420230  RH  093%=      5-min Rain = 0
KCO2 240148Z 15004KT 24/23 A3001 RMK A01 T02420230  RH  093%=      5-min Rain = 0
KCO2 240149Z 16004KT 24/23 A3001 RMK A01 T02420230  RH  093%=      5-min Rain = 0
KCO2 240150Z 18004KT 24/23 A3001 RMK A01 T02420230  RH  093%=      5-min Rain = 0
KCO2 240151Z 20004KT 24/23 A3001 RMK A01 T02420230  RH  093%=      5-min Rain = 0
KCO2 240152Z 23004KT 24/23 A3002 RMK A01 T02420230  RH  093%=      5-min Rain = 0
KCO2 240153Z 25006KT 24/23 A3002 RMK A01 T02420230  RH  093%=      5-min Rain = 0
KCO2 240154Z 26006KT 24/23 A3002 RMK A01 T02420231  RH  093%=      5-min Rain = 0
KCO2 240155Z 27006KT 24/23 A3002 RMK A01 T02420231  RH  094%=      5-min Rain = 0
KCO2 240156Z 27007KT 24/23 A3002 RMK A01 T02420231  RH  094%=      5-min Rain = 0
KCO2 240157Z 28006KT 24/23 A3002 RMK A01 T02420231  RH  094%=      5-min Rain = 0
KCO2 240158Z 28007KT 24/23 A3002 RMK A01 T02420231  RH  094%=      5-min Rain = 0
KCO2 240159Z 29008KT 24/23 A3002 RMK A01 T02420231  RH  094%=      5-min Rain = 0
KCO2 240200Z 29007KT 24/23 A3002 RMK A01 T02420230  RH  093%=      5-min Rain = 0
KCO2 240201Z 29006KT 24/23 A3002 RMK A01 T02420229  RH  093%=      5-min Rain = 0
KCO2 240202Z 30007KT 24/23 A3002 RMK A01 T02420230  RH  093%=      5-min Rain = 0
KCO2 240203Z 30006KT 24/23 A3001 RMK A01 T02410229  RH  093%=      5-min Rain = 0
KCO2 240204Z 30006KT 24/23 A3001 RMK A01 T02410228  RH  093%=      5-min Rain = 0
KCO2 240205Z 31004KT 24/23 A3001 RMK A01 T02410227  RH  092%=      5-min Rain = 0
KCO2 240206Z 32005KT 24/23 A3001 RMK A01 T02410227  RH  092%=      5-min Rain = 0
KCO2 240207Z 31006KT 24/23 A3001 RMK A01 T02410226  RH  091%=      5-min Rain = 0
KCO2 240208Z 31005KT 24/23 A3001 RMK A01 T02410225  RH  091%=      5-min Rain = 0
KCO2 240209Z 32005KT 24/22 A3001 RMK A01 T02400224  RH  091%=      5-min Rain = 0
KCO2 240210Z 31006KT 24/22 A3001 RMK A01 T02390223  RH  090%=      5-min Rain = 0
KCO2 240211Z 31006KT 24/22 A3001 RMK A01 T02390222  RH  090%=      5-min Rain = 0
KCO2 240212Z 32006KT 24/22 A3001 RMK A01 T02380221  RH  090%=      5-min Rain = 0
KCO2 240213Z 33006KT 24/22 A3001 RMK A01 T02370220  RH  090%=      5-min Rain = 0
KCO2 240214Z 32005KT 24/22 A3001 RMK A01 T02370220  RH  090%=      5-min Rain = 0
KCO2 240215Z 32004KT 24/22 A3001 RMK A01 T02370220  RH  090%=      5-min Rain = 0
KCO2 240216Z 31004KT 24/22 A3001 RMK A01 T02370221  RH  090%=      5-min Rain = 0
KCO2 240217Z 32005KT 24/22 A3001 RMK A01 T02370221  RH  091%=      5-min Rain = 0
KCO2 240218Z 33005KT 24/22 A3001 RMK A01 T02360220  RH  091%=      5-min Rain = 0
KCO2 240219Z 33004KT 24/22 A3001 RMK A01 T02360220  RH  091%=      5-min Rain = 0
KCO2 240220Z 34004KT 24/22 A3001 RMK A01 T02360220  RH  090%=      5-min Rain = 0
KCO2 240221Z 34004KT 24/22 A3001 RMK A01 T02360219  RH  090%=      5-min Rain = 0
KCO2 240222Z 34003KT 24/22 A3001 RMK A01 T02360219  RH  090%=      5-min Rain = 0
KCO2 240223Z 36003KT 24/22 A3001 RMK A01 T02360219  RH  090%=      5-min Rain = 0
KCO2 240224Z 36003KT 24/22 A3001 RMK A01 T02350218  RH  090%=      5-min Rain = 0
KCO2 240225Z 01004KT 24/22 A3001 RMK A01 T02350219  RH  090%=      5-min Rain = 0
KCO2 240226Z 01004KT 24/22 A3001 RMK A01 T02350219  RH  091%=      5-min Rain = 0
KCO2 240227Z 02003KT 24/22 A3001 RMK A01 T02350220  RH  091%=      5-min Rain = 0
KCO2 240228Z 01004KT 24/22 A3002 RMK A01 T02350220  RH  091%=      5-min Rain = 0
KCO2 240229Z 01004KT 24/22 A3002 RMK A01 T02350220  RH  091%=      5-min Rain = 0
KCO2 240230Z 01005KT 24/22 A3002 RMK A01 T02350220  RH  091%=      5-min Rain = 0
KCO2 240231Z 00005KT 24/22 A3002 RMK A01 T02350220  RH  091%=      5-min Rain = 0
KCO2 240232Z 36006KT 24/22 A3002 RMK A01 T02360221  RH  091%=      5-min Rain = 0
KCO2 240233Z 00005KT 24/22 A3002 RMK A01 T02360221  RH  092%=      5-min Rain = 0.01
KCO2 240234Z 00006KT 24/22 A3002 RMK A01 T02350221  RH  092%=      5-min Rain = 0
KCO2 240235Z 01008KT 23/22 A3002 RMK A01 T02340221  RH  092%=      5-min Rain = 0
KCO2 240236Z 01008KT 23/22 A3002 RMK A01 T02330219  RH  092%=      5-min Rain = 0
KCO2 240237Z 02008KT 23/22 A3002 RMK A01 T02330219  RH  092%=      5-min Rain = 0
KCO2 240238Z 02008KT 23/22 A3002 RMK A01 T02330219  RH  091%=      5-min Rain = 0
KCO2 240239Z 03009KT 23/22 A3002 RMK A01 T02330218  RH  092%=      5-min Rain = 0
KCO2 240240Z 03008KT 23/22 A3002 RMK A01 T02330219  RH  092%=      5-min Rain = 0
KCO2 240241Z 03009KT 23/22 A3002 RMK A01 T02320219  RH  092%=      5-min Rain = 0
KCO2 240242Z 03011KT 23/22 A3002 RMK A01 T02320219  RH  092%=      5-min Rain = 0
KCO2 240243Z 03012KT 23/22 A3002 RMK A01 T02320219  RH  092%=      5-min Rain = 0.01
KCO2 240244Z 03011KT 23/22 A3002 RMK A01 T02320220  RH  093%=      5-min Rain = 0
KCO2 240245Z 03010KT 23/22 A3002 RMK A01 T02320220  RH  093%=      5-min Rain = 0
KCO2 240246Z 03011KT 23/22 A3002 RMK A01 T02320221  RH  093%=      5-min Rain = 0
KCO2 240247Z 03013KT 23/22 A3002 RMK A01 T02320221  RH  093%=      5-min Rain = 0
KCO2 240248Z 03009KT 23/22 A3002 RMK A01 T02310220  RH  093%=      5-min Rain = 0
KCO2 240249Z 03011KT 23/22 A3003 RMK A01 T02310219  RH  093%=      5-min Rain = 0
KCO2 240250Z 03011KT 23/22 A3003 RMK A01 T02310218  RH  093%=      5-min Rain = 0
KCO2 240251Z 04012KT 23/22 A3003 RMK A01 T02300217  RH  092%=      5-min Rain = 0
KCO2 240252Z 04010KT 23/22 A3003 RMK A01 T02300217  RH  092%=      5-min Rain = 0
KCO2 240253Z 04012KT 23/22 A3003 RMK A01 T02300217  RH  092%=      5-min Rain = 0
KCO2 240254Z 04011KT 23/22 A3003 RMK A01 T02290216  RH  092%=      5-min Rain = 0
KCO2 240255Z 05011KT 23/22 A3002 RMK A01 T02290216  RH  092%=      5-min Rain = 0
KCO2 240256Z 05011KT 23/22 A3002 RMK A01 T02290216  RH  092%=      5-min Rain = 0
KCO2 240257Z 05010KT 23/22 A3002 RMK A01 T02280216  RH  093%=      5-min Rain = 0.01
KCO2 240258Z 04012KT 23/22 A3002 RMK A01 T02280216  RH  093%=      5-min Rain = 0
KCO2 240259Z 04012KT 23/22 A3002 RMK A01 T02270215  RH  093%=      5-min Rain = 0
KCO2 240300Z 03012KT 23/22 A3002 RMK A01 T02270215  RH  093%=      5-min Rain = 0.01
KCO2 240301Z 03011KT 23/22 A3002 RMK A01 T02270216  RH  093%=      5-min Rain = 0
KCO2 240302Z 03013KT 23/22 A3002 RMK A01 T02270216  RH  094%=      5-min Rain = 0
KCO2 240303Z 03012KT 23/22 A3002 RMK A01 T02270216  RH  094%=      5-min Rain = 0
KCO2 240304Z 03012KT 23/22 A3002 RMK A01 T02270217  RH  094%=      5-min Rain = 0
KCO2 240305Z 03013KT 23/22 A3002 RMK A01 T02260216  RH  094%=      5-min Rain = 0.01
KCO2 240306Z 03013KT 23/22 A3002 RMK A01 T02270217  RH  094%=      5-min Rain = 0
KCO2 240307Z 03012KT 23/22 A3002 RMK A01 T02270217  RH  094%=      5-min Rain = 0
KCO2 240308Z 04012KT 23/22 A3002 RMK A01 T02260217  RH  094%=      5-min Rain = 0
KCO2 240309Z 04011KT 23/22 A3002 RMK A01 T02270217  RH  094%=      5-min Rain = 0
KCO2 240310Z 04009KT 23/22 A3002 RMK A01 T02270217  RH  094%=      5-min Rain = 0
KCO2 240311Z 04010KT 23/22 A3002 RMK A01 T02260217  RH  094%=      5-min Rain = 0
KCO2 240312Z 04011KT 23/22 A3002 RMK A01 T02270217  RH  094%=      5-min Rain = 0
KCO2 240313Z 04014KT 23/22 A3002 RMK A01 T02270217  RH  094%=      5-min Rain = 0
KCO2 240314Z 04012KT 23/22 A3002 RMK A01 T02260217  RH  094%=      5-min Rain = 0
KCO2 240315Z 05012KT 23/22 A3002 RMK A01 T02270217  RH  094%=      5-min Rain = 0
KCO2 240316Z 05011KT 23/22 A3002 RMK A01 T02260216  RH  094%=      5-min Rain = 0
KCO2 240317Z 06010KT 23/22 A3002 RMK A01 T02260216  RH  094%=      5-min Rain = 0
KCO2 240318Z 06009KT 23/22 A3002 RMK A01 T02260216  RH  094%=      5-min Rain = 0
KCO2 240319Z 06010KT 23/22 A3003 RMK A01 T02260216  RH  094%=      5-min Rain = 0
KCO2 240320Z 06010KT 23/22 A3003 RMK A01 T02260216  RH  094%=      5-min Rain = 0
KCO2 240321Z 06010KT 23/22 A3003 RMK A01 T02260216  RH  094%=      5-min Rain = 0
KCO2 240322Z 06010KT 23/22 A3003 RMK A01 T02270216  RH  094%=      5-min Rain = 0
KCO2 240323Z 06009KT 23/22 A3003 RMK A01 T02260216  RH  094%=      5-min Rain = 0
KCO2 240324Z 06010KT 23/22 A3003 RMK A01 T02260216  RH  094%=      5-min Rain = 0
KCO2 240325Z 06010KT 23/22 A3003 RMK A01 T02260216  RH  094%=      5-min Rain = 0
KCO2 240326Z 05010KT 23/22 A3003 RMK A01 T02260216  RH  094%=      5-min Rain = 0
KCO2 240327Z 05010KT 23/22 A3003 RMK A01 T02270217  RH  094%=      5-min Rain = 0
KCO2 240328Z 05010KT 23/22 A3003 RMK A01 T02260217  RH  094%=      5-min Rain = 0
KCO2 240329Z 06011KT 23/22 A3003 RMK A01 T02260217  RH  094%=      5-min Rain = 0
KCO2 240330Z 06012KT 23/22 A3003 RMK A01 T02260216  RH  094%=      5-min Rain = 0
KCO2 240331Z 06010KT 23/22 A3003 RMK A01 T02260216  RH  094%=      5-min Rain = 0
KCO2 240332Z 06011KT 23/22 A3003 RMK A01 T02260216  RH  094%=      5-min Rain = 0
KCO2 240333Z 06013KT 23/22 A3003 RMK A01 T02260215  RH  094%=      5-min Rain = 0
KCO2 240334Z 06012KT 23/22 A3003 RMK A01 T02260215  RH  094%=      5-min Rain = 0
KCO2 240335Z 06012KT 23/22 A3003 RMK A01 T02260215  RH  094%=      5-min Rain = 0
KCO2 240336Z 06011KT 23/22 A3003 RMK A01 T02260215  RH  094%=      5-min Rain = 0
KCO2 240337Z 06011KT 23/22 A3003 RMK A01 T02250215  RH  094%=      5-min Rain = 0
KCO2 240338Z 06012KT 23/22 A3003 RMK A01 T02250215  RH  094%=      5-min Rain = 0
KCO2 240339Z 06014KT 23/22 A3003 RMK A01 T02250215  RH  094%=      5-min Rain = 0
KCO2 240340Z 06011KT 23/22 A3003 RMK A01 T02250215  RH  094%=      5-min Rain = 0
KCO2 240341Z 06011KT 23/22 A3003 RMK A01 T02250215  RH  094%=      5-min Rain = 0
KCO2 240342Z 06011KT 22/22 A3003 RMK A01 T02240215  RH  094%=      5-min Rain = 0
KCO2 240343Z 06012KT 22/22 A3003 RMK A01 T02240215  RH  094%=      5-min Rain = 0
KCO2 240344Z 06012KT 22/22 A3003 RMK A01 T02240215  RH  094%=      5-min Rain = 0
KCO2 240345Z 06012KT 22/22 A3003 RMK A01 T02240215  RH  095%=      5-min Rain = 0
KCO2 240346Z 07011KT 22/22 A3003 RMK A01 T02240215  RH  095%=      5-min Rain = 0
KCO2 240347Z 07012KT 22/22 A3003 RMK A01 T02240215  RH  095%=      5-min Rain = 0
KCO2 240348Z 06013KT 22/22 A3003 RMK A01 T02230215  RH  095%=      5-min Rain = 0
KCO2 240349Z 06012KT 22/22 A3003 RMK A01 T02240215  RH  095%=      5-min Rain = 0
KCO2 240350Z 06012KT 22/22 A3003 RMK A01 T02240215  RH  095%=      5-min Rain = 0
KCO2 240351Z 06011G16KT 22/22 A3003 RMK A01 T02240215  RH  095%=      5-min Rain = 0
KCO2 240352Z 06010KT 22/22 A3003 RMK A01 T02240215  RH  095%=      5-min Rain = 0
KCO2 240353Z 06011KT 22/22 A3003 RMK A01 T02240215  RH  095%=      5-min Rain = 0
KCO2 240354Z 07011KT 22/22 A3003 RMK A01 T02240215  RH  095%=      5-min Rain = 0
KCO2 240355Z 07010KT 22/22 A3003 RMK A01 T02240215  RH  095%=      5-min Rain = 0
KCO2 240356Z 07010KT 22/22 A3003 RMK A01 T02240215  RH  095%=      5-min Rain = 0
KCO2 240357Z 07012KT 22/22 A3003 RMK A01 T02240215  RH  095%=      5-min Rain = 0
KCO2 240358Z 07012KT 22/22 A3003 RMK A01 T02240215  RH  095%=      5-min Rain = 0
KCO2 240359Z 07011KT 22/22 A3003 RMK A01 T02240215  RH  095%=      5-min Rain = 0
KCO2 240400Z 07012KT 22/22 A3003 RMK A01 T02230215  RH  095%=      5-min Rain = 0
KCO2 240401Z 07012KT 22/22 A3003 RMK A01 T02240215  RH  095%=      5-min Rain = 0
KCO2 240402Z 07012KT 22/22 A3003 RMK A01 T02240215  RH  095%=      5-min Rain = 0
KCO2 240403Z 08011KT 22/22 A3003 RMK A01 T02240215  RH  095%=      5-min Rain = 0
KCO2 240404Z 07012KT 22/22 A3003 RMK A01 T02240215  RH  095%=      5-min Rain = 0
KCO2 240405Z 08012KT 22/22 A3003 RMK A01 T02240215  RH  095%=      5-min Rain = 0
KCO2 240406Z 07012KT 22/22 A3003 RMK A01 T02240215  RH  095%=      5-min Rain = 0
KCO2 240407Z 08013KT 22/22 A3003 RMK A01 T02240215  RH  095%=      5-min Rain = 0
KCO2 240408Z 07012KT 22/22 A3003 RMK A01 T02230215  RH  095%=      5-min Rain = 0
KCO2 240409Z 07012KT 22/22 A3003 RMK A01 T02230215  RH  095%=      5-min Rain = 0
KCO2 240410Z 07013KT 22/22 A3003 RMK A01 T02230215  RH  095%=      5-min Rain = 0
KCO2 240411Z 07011KT 22/22 A3003 RMK A01 T02230215  RH  095%=      5-min Rain = 0
KCO2 240412Z 07010KT 22/21 A3003 RMK A01 T02230214  RH  095%=      5-min Rain = 0
KCO2 240413Z 08009KT 22/22 A3003 RMK A01 T02230215  RH  095%=      5-min Rain = 0
KCO2 240414Z 08014KT 22/21 A3003 RMK A01 T02230214  RH  095%=      5-min Rain = 0
KCO2 240415Z 08012KT 22/21 A3002 RMK A01 T02230214  RH  095%=      5-min Rain = 0
KCO2 240416Z 08013KT 22/21 A3002 RMK A01 T02230214  RH  095%=      5-min Rain = 0
KCO2 240417Z 07014KT 22/21 A3002 RMK A01 T02230214  RH  095%=      5-min Rain = 0
KCO2 240418Z 07010KT 22/21 A3002 RMK A01 T02230214  RH  095%=      5-min Rain = 0
KCO2 240419Z 08012KT 22/21 A3002 RMK A01 T02230214  RH  095%=      5-min Rain = 0
KCO2 240420Z 08012KT 22/21 A3002 RMK A01 T02220214  RH  095%=      5-min Rain = 0
KCO2 240421Z 08011KT 22/21 A3002 RMK A01 T02220214  RH  095%=      5-min Rain = 0
KCO2 240422Z 08013KT 22/21 A3002 RMK A01 T02220214  RH  095%=      5-min Rain = 0
KCO2 240423Z 08012KT 22/21 A3002 RMK A01 T02220214  RH  095%=      5-min Rain = 0
KCO2 240424Z 08010KT 22/21 A3002 RMK A01 T02220214  RH  095%=      5-min Rain = 0
KCO2 240425Z 08010KT 22/21 A3002 RMK A01 T02220214  RH  095%=      5-min Rain = 0
KCO2 240426Z 08011KT 22/21 A3002 RMK A01 T02220214  RH  095%=      5-min Rain = 0
KCO2 240427Z 08010KT 22/21 A3002 RMK A01 T02220214  RH  095%=      5-min Rain = 0
KCO2 240428Z 08010KT 22/21 A3002 RMK A01 T02220214  RH  095%=      5-min Rain = 0
KCO2 240429Z 08010KT 22/21 A3002 RMK A01 T02220214  RH  095%=      5-min Rain = 0
KCO2 240430Z 09009KT 22/21 A3002 RMK A01 T02220214  RH  096%=      5-min Rain = 0
KCO2 240431Z 08009KT 22/21 A3002 RMK A01 T02210214  RH  096%=      5-min Rain = 0
KCO2 240432Z 08009KT 22/21 A3002 RMK A01 T02210214  RH  096%=      5-min Rain = 0
KCO2 240433Z 08010KT 22/21 A3002 RMK A01 T02220214  RH  096%=      5-min Rain = 0
KCO2 240434Z 08008KT 22/21 A3002 RMK A01 T02210214  RH  096%=      5-min Rain = 0
KCO2 240435Z 09009KT 22/21 A3002 RMK A01 T02220214  RH  096%=      5-min Rain = 0
KCO2 240436Z 09009KT 22/21 A3002 RMK A01 T02210214  RH  096%=      5-min Rain = 0
KCO2 240437Z 08009KT 22/21 A3002 RMK A01 T02210214  RH  096%=      5-min Rain = 0
KCO2 240438Z 08008KT 22/21 A3002 RMK A01 T02210214  RH  096%=      5-min Rain = 0
KCO2 240439Z 09008KT 22/21 A3002 RMK A01 T02210214  RH  096%=      5-min Rain = 0
KCO2 240440Z 09008KT 22/21 A3002 RMK A01 T02220214  RH  096%=      5-min Rain = 0
KCO2 240441Z 09009KT 22/21 A3002 RMK A01 T02210214  RH  095%=      5-min Rain = 0
KCO2 240442Z 08010KT 22/21 A3002 RMK A01 T02210213  RH  095%=      5-min Rain = 0
KCO2 240443Z 09011KT 22/21 A3002 RMK A01 T02210213  RH  095%=      5-min Rain = 0
KCO2 240444Z 08010KT 22/21 A3002 RMK A01 T02210213  RH  095%=      5-min Rain = 0
KCO2 240445Z 08009KT 22/21 A3002 RMK A01 T02210213  RH  095%=      5-min Rain = 0
KCO2 240446Z 09011KT 22/21 A3002 RMK A01 T02210213  RH  095%=      5-min Rain = 0
KCO2 240447Z 08010KT 22/21 A3002 RMK A01 T02210212  RH  095%=      5-min Rain = 0
KCO2 240448Z 08009KT 22/21 A3002 RMK A01 T02210212  RH  094%=      5-min Rain = 0
KCO2 240449Z 08009KT 22/21 A3002 RMK A01 T02210212  RH  094%=      5-min Rain = 0
KCO2 240450Z 08010KT 22/21 A3002 RMK A01 T02220212  RH  094%=      5-min Rain = 0
KCO2 240451Z 08012KT 22/21 A3002 RMK A01 T02210212  RH  094%=      5-min Rain = 0
KCO2 240452Z 08010KT 22/21 A3002 RMK A01 T02220212  RH  094%=      5-min Rain = 0
KCO2 240453Z 08010KT 22/21 A3002 RMK A01 T02220212  RH  094%=      5-min Rain = 0
KCO2 240454Z 08009KT 22/21 A3002 RMK A01 T02220212  RH  094%=      5-min Rain = 0
KCO2 240455Z 08009KT 22/21 A3002 RMK A01 T02220212  RH  094%=      5-min Rain = 0
KCO2 240456Z 08009KT 22/21 A3002 RMK A01 T02220212  RH  094%=      5-min Rain = 0
KCO2 240457Z 08008KT 22/21 A3002 RMK A01 T02220212  RH  094%=      5-min Rain = 0
KCO2 240458Z 08009KT 22/21 A3002 RMK A01 T02220212  RH  094%=      5-min Rain = 0
KCO2 240459Z 09010KT 22/21 A3002 RMK A01 T02220213  RH  094%=      5-min Rain = 0

Page generated in 0.121 seconds.